<?xml version="1.0" encoding="UTF-8" standalone="no" ?>
<gpx xmlns="http://www.topografix.com/GPX/1/1" xmlns:xsi="http://www.w3.org/2001/XMLSchema-instance" xsi:schemaLocation="http://www.topografix.com/GPX/1/1 http://www.topografix.com/GPX/1/1/gpx.xsd" version="1.1" creator="VisuGPX - https://www.visugpx.com">
  <metadata>
    <name>Croix de Colomban par la Pointe de Beauregard</name>
  </metadata>
  <wpt lat="45.90618" lon="6.4202">
    <ele>1048.6</ele>
    <name><![CDATA[Parking du "Salon des Dames"]]></name>
  </wpt>
  <wpt lat="45.9058" lon="6.42025">
    <ele>1055.1</ele>
    <name><![CDATA[Piste en face]]></name>
  </wpt>
  <wpt lat="45.90353" lon="6.40643">
    <ele>1345.3</ele>
    <name><![CDATA[Piste en face]]></name>
  </wpt>
  <wpt lat="45.89931" lon="6.40897">
    <ele>1346.3</ele>
    <name><![CDATA[Piste montante à droite]]></name>
  </wpt>
  <wpt lat="45.89808" lon="6.39592">
    <ele>1489.5</ele>
    <name><![CDATA[Ferme-auberge]]></name>
  </wpt>
  <wpt lat="45.89383" lon="6.40374">
    <ele>1608.3</ele>
    <name><![CDATA[Bifurcation, à gauche]]></name>
  </wpt>
  <wpt lat="45.8938" lon="6.40719">
    <ele>1623.9</ele>
    <name><![CDATA[Pointe de Beauregard]]></name>
  </wpt>
  <wpt lat="45.89239" lon="6.39595">
    <ele>1613.7</ele>
    <name><![CDATA[Chalet restaurant]]></name>
  </wpt>
  <wpt lat="45.89013" lon="6.38809">
    <ele>1576.8</ele>
    <name><![CDATA[Carrefour de quatre pistes, à gauche]]></name>
  </wpt>
  <wpt lat="45.88561" lon="6.38153">
    <ele>1634.4</ele>
    <name><![CDATA[Sentier à droite]]></name>
  </wpt>
  <wpt lat="45.88517" lon="6.37517">
    <ele>1675.5</ele>
    <name><![CDATA[Croix de Colomban]]></name>
  </wpt>
  <wpt lat="45.89482" lon="6.38614">
    <ele>1561.5</ele>
    <name><![CDATA[Chalet d'alpage, derrière à droite]]></name>
  </wpt>
  <wpt lat="45.89825" lon="6.3926">
    <ele>1510</ele>
    <name><![CDATA[Petit col, à gauche]]></name>
  </wpt>
  <wpt lat="45.90257" lon="6.40004">
    <ele>1486.5</ele>
    <name><![CDATA[Point de vue]]></name>
  </wpt>
  <wpt lat="45.90424" lon="6.40178">
    <ele>1437.7</ele>
    <name><![CDATA[Sentier virant à droite sous forêt.]]></name>
  </wpt>
  <wpt lat="45.90553" lon="6.40465">
    <ele>1427.8</ele>
    <name><![CDATA[Bifurcation, en face]]></name>
  </wpt>
  <wpt lat="45.90618" lon="6.42013">
    <ele>1048.7</ele>
    <name><![CDATA[Parking du "Salon des Dames"]]></name>
  </wpt>
  <trk>
    <name><![CDATA[Croix de Colomban par la Pointe de Beauregard]]></name>
    <extensions>
      <line xmlns="http://www.topografix.com/GPX/gpx_style/0/2">
        <color>0000FF</color>
        <width>4</width>
      </line>
    </extensions>
    <trkseg>
      <trkpt lat="45.90618" lon="6.4202">
        <ele>1036</ele>
        <time>2019-08-21T09:52:49+02:00</time>
      </trkpt>
      <trkpt lat="45.90572" lon="6.42163">
        <ele>1028</ele>
        <time>2021-08-05T12:25:55+02:00</time>
      </trkpt>
      <trkpt lat="45.90528" lon="6.42151">
        <ele>1033</ele>
        <time>2021-08-05T12:26:00+02:00</time>
      </trkpt>
      <trkpt lat="45.9044" lon="6.42072">
        <ele>1038</ele>
        <time>2019-08-21T09:53:24+02:00</time>
      </trkpt>
      <trkpt lat="45.90467" lon="6.42038">
        <ele>1042</ele>
        <time>2021-08-05T12:26:10+02:00</time>
      </trkpt>
      <trkpt lat="45.90493" lon="6.4204">
        <ele>1043</ele>
        <time>2021-08-05T12:26:15+02:00</time>
      </trkpt>
      <trkpt lat="45.90547" lon="6.42073">
        <ele>1046</ele>
        <time>2021-08-05T12:26:20+02:00</time>
      </trkpt>
      <trkpt lat="45.90571" lon="6.42055">
        <ele>1048</ele>
        <time>2021-08-05T12:26:25+02:00</time>
      </trkpt>
      <trkpt lat="45.9058" lon="6.42025">
        <ele>1052</ele>
        <time>2021-08-05T12:26:30+02:00</time>
      </trkpt>
      <trkpt lat="45.90579" lon="6.41962">
        <ele>1058</ele>
        <time>2019-08-21T09:54:04+02:00</time>
      </trkpt>
      <trkpt lat="45.90569" lon="6.41934">
        <ele>1062</ele>
        <time>2019-08-21T09:54:47+02:00</time>
      </trkpt>
      <trkpt lat="45.90568" lon="6.41912">
        <ele>1065</ele>
        <time>2019-08-21T09:55:08+02:00</time>
      </trkpt>
      <trkpt lat="45.90569" lon="6.41885">
        <ele>1068</ele>
        <time>2019-08-21T09:55:25+02:00</time>
      </trkpt>
      <trkpt lat="45.90575" lon="6.41862">
        <ele>1073</ele>
        <time>2019-08-21T09:55:46+02:00</time>
      </trkpt>
      <trkpt lat="45.90578" lon="6.41844">
        <ele>1082</ele>
        <time>2019-08-21T09:57:31+02:00</time>
      </trkpt>
      <trkpt lat="45.90578" lon="6.41815">
        <ele>1095</ele>
        <time>2019-08-21T09:58:45+02:00</time>
      </trkpt>
      <trkpt lat="45.90587" lon="6.41791">
        <ele>1105</ele>
        <time>2019-08-21T09:59:35+02:00</time>
      </trkpt>
      <trkpt lat="45.90598" lon="6.41773">
        <ele>1112</ele>
        <time>2019-08-21T10:01:02+02:00</time>
      </trkpt>
      <trkpt lat="45.9059" lon="6.41749">
        <ele>1119</ele>
        <time>2019-08-21T10:02:34+02:00</time>
      </trkpt>
      <trkpt lat="45.90589" lon="6.41724">
        <ele>1126</ele>
        <time>2019-08-21T10:03:21+02:00</time>
      </trkpt>
      <trkpt lat="45.90586" lon="6.41708">
        <ele>1128</ele>
        <time>2021-08-05T12:27:30+02:00</time>
      </trkpt>
      <trkpt lat="45.90588" lon="6.41686">
        <ele>1133</ele>
        <time>2021-08-05T12:27:35+02:00</time>
      </trkpt>
      <trkpt lat="45.90606" lon="6.41696">
        <ele>1139</ele>
        <time>2019-08-21T10:04:09+02:00</time>
      </trkpt>
      <trkpt lat="45.90605" lon="6.41668">
        <ele>1145</ele>
        <time>2019-08-21T10:05:13+02:00</time>
      </trkpt>
      <trkpt lat="45.90624" lon="6.41671">
        <ele>1154</ele>
        <time>2019-08-21T10:06:28+02:00</time>
      </trkpt>
      <trkpt lat="45.90621" lon="6.41623">
        <ele>1165</ele>
        <time>2021-08-05T12:27:55+02:00</time>
      </trkpt>
      <trkpt lat="45.90631" lon="6.41625">
        <ele>1170</ele>
        <time>2019-08-21T10:08:09+02:00</time>
      </trkpt>
      <trkpt lat="45.9063" lon="6.41585">
        <ele>1182</ele>
        <time>2019-08-21T10:08:45+02:00</time>
      </trkpt>
      <trkpt lat="45.90658" lon="6.41599">
        <ele>1192</ele>
        <time>2019-08-21T10:13:54+02:00</time>
      </trkpt>
      <trkpt lat="45.90649" lon="6.41549">
        <ele>1202</ele>
        <time>2019-08-21T10:15:20+02:00</time>
      </trkpt>
      <trkpt lat="45.90647" lon="6.41533">
        <ele>1206</ele>
        <time>2019-08-21T10:15:47+02:00</time>
      </trkpt>
      <trkpt lat="45.90641" lon="6.41508">
        <ele>1213</ele>
        <time>2019-08-21T10:16:07+02:00</time>
      </trkpt>
      <trkpt lat="45.90627" lon="6.41482">
        <ele>1215</ele>
        <time>2019-08-21T10:16:35+02:00</time>
      </trkpt>
      <trkpt lat="45.906" lon="6.41431">
        <ele>1221</ele>
        <time>2019-08-21T10:17:08+02:00</time>
      </trkpt>
      <trkpt lat="45.90629" lon="6.41441">
        <ele>1231</ele>
        <time>2019-08-21T10:18:00+02:00</time>
      </trkpt>
      <trkpt lat="45.90618" lon="6.41376">
        <ele>1250</ele>
        <time>2019-08-21T10:20:05+02:00</time>
      </trkpt>
      <trkpt lat="45.90605" lon="6.41329">
        <ele>1265</ele>
        <time>2019-08-21T10:21:37+02:00</time>
      </trkpt>
      <trkpt lat="45.90586" lon="6.41283">
        <ele>1277</ele>
        <time>2019-08-21T10:23:24+02:00</time>
      </trkpt>
      <trkpt lat="45.90514" lon="6.41164">
        <ele>1286</ele>
        <time>2019-08-21T10:26:39+02:00</time>
      </trkpt>
      <trkpt lat="45.90482" lon="6.41002">
        <ele>1307</ele>
        <time>2019-08-21T10:29:10+02:00</time>
      </trkpt>
      <trkpt lat="45.90477" lon="6.40976">
        <ele>1308</ele>
        <time>2019-08-21T10:29:30+02:00</time>
      </trkpt>
      <trkpt lat="45.90476" lon="6.409">
        <ele>1320</ele>
        <time>2021-08-05T12:29:15+02:00</time>
      </trkpt>
      <trkpt lat="45.90452" lon="6.40835">
        <ele>1323</ele>
        <time>2021-08-05T12:29:20+02:00</time>
      </trkpt>
      <trkpt lat="45.9044" lon="6.40773">
        <ele>1331</ele>
        <time>2019-08-21T10:32:17+02:00</time>
      </trkpt>
      <trkpt lat="45.90428" lon="6.40752">
        <ele>1332</ele>
        <time>2019-08-21T10:32:36+02:00</time>
      </trkpt>
      <trkpt lat="45.90423" lon="6.40739">
        <ele>1335</ele>
        <time>2019-08-21T10:32:55+02:00</time>
      </trkpt>
      <trkpt lat="45.9041" lon="6.40719">
        <ele>1336</ele>
        <time>2019-08-21T10:33:14+02:00</time>
      </trkpt>
      <trkpt lat="45.90395" lon="6.40699">
        <ele>1335</ele>
        <time>2019-08-21T10:33:36+02:00</time>
      </trkpt>
      <trkpt lat="45.90381" lon="6.4068">
        <ele>1337</ele>
        <time>2019-08-21T10:33:52+02:00</time>
      </trkpt>
      <trkpt lat="45.90367" lon="6.40663">
        <ele>1338</ele>
        <time>2019-08-21T10:34:12+02:00</time>
      </trkpt>
      <trkpt lat="45.90353" lon="6.40643">
        <ele>1340</ele>
        <time>2019-08-21T10:34:32+02:00</time>
      </trkpt>
      <trkpt lat="45.90338" lon="6.40628">
        <ele>1339</ele>
        <time>2019-08-21T10:34:52+02:00</time>
      </trkpt>
      <trkpt lat="45.90321" lon="6.40617">
        <ele>1336</ele>
        <time>2019-08-21T10:35:23+02:00</time>
      </trkpt>
      <trkpt lat="45.90307" lon="6.40599">
        <ele>1334</ele>
        <time>2019-08-21T10:35:39+02:00</time>
      </trkpt>
      <trkpt lat="45.90296" lon="6.40577">
        <ele>1333</ele>
        <time>2019-08-21T10:36:46+02:00</time>
      </trkpt>
      <trkpt lat="45.90285" lon="6.40556">
        <ele>1331</ele>
        <time>2019-08-21T10:36:59+02:00</time>
      </trkpt>
      <trkpt lat="45.90274" lon="6.40534">
        <ele>1330</ele>
        <time>2019-08-21T10:37:12+02:00</time>
      </trkpt>
      <trkpt lat="45.90264" lon="6.40512">
        <ele>1331</ele>
        <time>2019-08-21T10:37:26+02:00</time>
      </trkpt>
      <trkpt lat="45.90251" lon="6.40492">
        <ele>1332</ele>
        <time>2019-08-21T10:37:41+02:00</time>
      </trkpt>
      <trkpt lat="45.90233" lon="6.40489">
        <ele>1333</ele>
        <time>2019-08-21T10:37:59+02:00</time>
      </trkpt>
      <trkpt lat="45.90216" lon="6.40503">
        <ele>1331</ele>
        <time>2019-08-21T10:38:13+02:00</time>
      </trkpt>
      <trkpt lat="45.90201" lon="6.4052">
        <ele>1328</ele>
        <time>2019-08-21T10:38:26+02:00</time>
      </trkpt>
      <trkpt lat="45.90186" lon="6.40536">
        <ele>1326</ele>
        <time>2019-08-21T10:38:40+02:00</time>
      </trkpt>
      <trkpt lat="45.90171" lon="6.40555">
        <ele>1324</ele>
        <time>2019-08-21T10:38:55+02:00</time>
      </trkpt>
      <trkpt lat="45.90155" lon="6.40569">
        <ele>1326</ele>
        <time>2019-08-21T10:39:13+02:00</time>
      </trkpt>
      <trkpt lat="45.90138" lon="6.40583">
        <ele>1327</ele>
        <time>2019-08-21T10:39:26+02:00</time>
      </trkpt>
      <trkpt lat="45.90124" lon="6.40601">
        <ele>1331</ele>
        <time>2019-08-21T10:39:40+02:00</time>
      </trkpt>
      <trkpt lat="45.9011" lon="6.4062">
        <ele>1330</ele>
        <time>2019-08-21T10:39:55+02:00</time>
      </trkpt>
      <trkpt lat="45.90096" lon="6.40639">
        <ele>1331</ele>
        <time>2019-08-21T10:40:12+02:00</time>
      </trkpt>
      <trkpt lat="45.9008" lon="6.40658">
        <ele>1332</ele>
        <time>2019-08-21T10:40:32+02:00</time>
      </trkpt>
      <trkpt lat="45.90063" lon="6.40669">
        <ele>1334</ele>
        <time>2019-08-21T10:41:01+02:00</time>
      </trkpt>
      <trkpt lat="45.90046" lon="6.40679">
        <ele>1333</ele>
        <time>2019-08-21T10:41:17+02:00</time>
      </trkpt>
      <trkpt lat="45.90033" lon="6.40696">
        <ele>1328</ele>
        <time>2019-08-21T10:41:40+02:00</time>
      </trkpt>
      <trkpt lat="45.90014" lon="6.40697">
        <ele>1330</ele>
        <time>2019-08-21T10:42:33+02:00</time>
      </trkpt>
      <trkpt lat="45.89996" lon="6.40688">
        <ele>1334</ele>
        <time>2019-08-21T10:42:53+02:00</time>
      </trkpt>
      <trkpt lat="45.89985" lon="6.4071">
        <ele>1335</ele>
        <time>2019-08-21T10:43:07+02:00</time>
      </trkpt>
      <trkpt lat="45.89981" lon="6.40737">
        <ele>1334</ele>
        <time>2019-08-21T10:43:23+02:00</time>
      </trkpt>
      <trkpt lat="45.8998" lon="6.40763">
        <ele>1334</ele>
        <time>2019-08-21T10:43:37+02:00</time>
      </trkpt>
      <trkpt lat="45.89981" lon="6.4079">
        <ele>1336</ele>
        <time>2019-08-21T10:43:51+02:00</time>
      </trkpt>
      <trkpt lat="45.89992" lon="6.40818">
        <ele>1336</ele>
        <time>2019-08-21T10:44:50+02:00</time>
      </trkpt>
      <trkpt lat="45.9001" lon="6.40828">
        <ele>1334</ele>
        <time>2019-08-21T10:45:16+02:00</time>
      </trkpt>
      <trkpt lat="45.90029" lon="6.40828">
        <ele>1331</ele>
        <time>2019-08-21T10:45:32+02:00</time>
      </trkpt>
      <trkpt lat="45.90046" lon="6.40835">
        <ele>1330</ele>
        <time>2019-08-21T10:46:04+02:00</time>
      </trkpt>
      <trkpt lat="45.90047" lon="6.4086">
        <ele>1333</ele>
        <time>2019-08-21T10:46:20+02:00</time>
      </trkpt>
      <trkpt lat="45.90046" lon="6.40887">
        <ele>1336</ele>
        <time>2019-08-21T10:46:37+02:00</time>
      </trkpt>
      <trkpt lat="45.90042" lon="6.40914">
        <ele>1336</ele>
        <time>2019-08-21T10:46:55+02:00</time>
      </trkpt>
      <trkpt lat="45.90033" lon="6.40938">
        <ele>1337</ele>
        <time>2019-08-21T10:47:11+02:00</time>
      </trkpt>
      <trkpt lat="45.90022" lon="6.40961">
        <ele>1337</ele>
        <time>2019-08-21T10:51:45+02:00</time>
      </trkpt>
      <trkpt lat="45.90004" lon="6.40964">
        <ele>1339</ele>
        <time>2019-08-21T10:53:44+02:00</time>
      </trkpt>
      <trkpt lat="45.89987" lon="6.40956">
        <ele>1339</ele>
        <time>2019-08-21T10:55:24+02:00</time>
      </trkpt>
      <trkpt lat="45.8997" lon="6.40944">
        <ele>1340</ele>
        <time>2019-08-21T10:57:18+02:00</time>
      </trkpt>
      <trkpt lat="45.89951" lon="6.40943">
        <ele>1339</ele>
        <time>2019-08-21T11:01:10+02:00</time>
      </trkpt>
      <trkpt lat="45.8994" lon="6.40922">
        <ele>1341</ele>
        <time>2019-08-21T11:02:19+02:00</time>
      </trkpt>
      <trkpt lat="45.89931" lon="6.40897">
        <ele>1343</ele>
        <time>2019-08-21T11:02:38+02:00</time>
      </trkpt>
      <trkpt lat="45.89922" lon="6.40875">
        <ele>1346</ele>
        <time>2019-08-21T11:02:58+02:00</time>
      </trkpt>
      <trkpt lat="45.8992" lon="6.40846">
        <ele>1350</ele>
        <time>2019-08-21T11:03:16+02:00</time>
      </trkpt>
      <trkpt lat="45.8992" lon="6.4082">
        <ele>1355</ele>
        <time>2019-08-21T11:03:31+02:00</time>
      </trkpt>
      <trkpt lat="45.8992" lon="6.40794">
        <ele>1361</ele>
        <time>2019-08-21T11:03:49+02:00</time>
      </trkpt>
      <trkpt lat="45.89922" lon="6.40767">
        <ele>1366</ele>
        <time>2019-08-21T11:04:06+02:00</time>
      </trkpt>
      <trkpt lat="45.89924" lon="6.4074">
        <ele>1369</ele>
        <time>2019-08-21T11:04:25+02:00</time>
      </trkpt>
      <trkpt lat="45.89927" lon="6.40712">
        <ele>1369</ele>
        <time>2019-08-21T11:04:42+02:00</time>
      </trkpt>
      <trkpt lat="45.89927" lon="6.40684">
        <ele>1370</ele>
        <time>2019-08-21T11:05:00+02:00</time>
      </trkpt>
      <trkpt lat="45.8993" lon="6.40661">
        <ele>1368</ele>
        <time>2019-08-21T11:09:49+02:00</time>
      </trkpt>
      <trkpt lat="45.89931" lon="6.40633">
        <ele>1368</ele>
        <time>2019-08-21T11:11:33+02:00</time>
      </trkpt>
      <trkpt lat="45.89928" lon="6.40607">
        <ele>1370</ele>
        <time>2019-08-21T11:12:00+02:00</time>
      </trkpt>
      <trkpt lat="45.89931" lon="6.40581">
        <ele>1369</ele>
        <time>2019-08-21T11:12:20+02:00</time>
      </trkpt>
      <trkpt lat="45.89932" lon="6.40555">
        <ele>1371</ele>
        <time>2019-08-21T11:12:37+02:00</time>
      </trkpt>
      <trkpt lat="45.89935" lon="6.40527">
        <ele>1372</ele>
        <time>2019-08-21T11:12:55+02:00</time>
      </trkpt>
      <trkpt lat="45.89936" lon="6.40501">
        <ele>1374</ele>
        <time>2019-08-21T11:13:11+02:00</time>
      </trkpt>
      <trkpt lat="45.89933" lon="6.40474">
        <ele>1378</ele>
        <time>2019-08-21T11:13:29+02:00</time>
      </trkpt>
      <trkpt lat="45.89927" lon="6.40448">
        <ele>1382</ele>
        <time>2019-08-21T11:13:47+02:00</time>
      </trkpt>
      <trkpt lat="45.89924" lon="6.40422">
        <ele>1384</ele>
        <time>2019-08-21T11:14:06+02:00</time>
      </trkpt>
      <trkpt lat="45.89918" lon="6.40396">
        <ele>1386</ele>
        <time>2019-08-21T11:14:24+02:00</time>
      </trkpt>
      <trkpt lat="45.89912" lon="6.40372">
        <ele>1388</ele>
        <time>2019-08-21T11:14:54+02:00</time>
      </trkpt>
      <trkpt lat="45.89906" lon="6.40345">
        <ele>1390</ele>
        <time>2019-08-21T11:15:10+02:00</time>
      </trkpt>
      <trkpt lat="45.8991" lon="6.40321">
        <ele>1392</ele>
        <time>2019-08-21T11:15:25+02:00</time>
      </trkpt>
      <trkpt lat="45.89925" lon="6.40306">
        <ele>1392</ele>
        <time>2019-08-21T11:15:39+02:00</time>
      </trkpt>
      <trkpt lat="45.89936" lon="6.40282">
        <ele>1392</ele>
        <time>2019-08-21T11:15:54+02:00</time>
      </trkpt>
      <trkpt lat="45.89937" lon="6.40255">
        <ele>1392</ele>
        <time>2019-08-21T11:16:08+02:00</time>
      </trkpt>
      <trkpt lat="45.89925" lon="6.40233">
        <ele>1397</ele>
        <time>2019-08-21T11:16:27+02:00</time>
      </trkpt>
      <trkpt lat="45.89916" lon="6.40209">
        <ele>1401</ele>
        <time>2019-08-21T11:16:59+02:00</time>
      </trkpt>
      <trkpt lat="45.89908" lon="6.40185">
        <ele>1403</ele>
        <time>2019-08-21T11:17:21+02:00</time>
      </trkpt>
      <trkpt lat="45.89898" lon="6.40162">
        <ele>1406</ele>
        <time>2019-08-21T11:17:40+02:00</time>
      </trkpt>
      <trkpt lat="45.89884" lon="6.40141">
        <ele>1410</ele>
        <time>2019-08-21T11:17:58+02:00</time>
      </trkpt>
      <trkpt lat="45.89875" lon="6.40118">
        <ele>1413</ele>
        <time>2019-08-21T11:18:20+02:00</time>
      </trkpt>
      <trkpt lat="45.89869" lon="6.40092">
        <ele>1414</ele>
        <time>2019-08-21T11:18:36+02:00</time>
      </trkpt>
      <trkpt lat="45.89855" lon="6.40071">
        <ele>1416</ele>
        <time>2019-08-21T11:18:56+02:00</time>
      </trkpt>
      <trkpt lat="45.89843" lon="6.40053">
        <ele>1419</ele>
        <time>2019-08-21T11:19:14+02:00</time>
      </trkpt>
      <trkpt lat="45.89845" lon="6.40026">
        <ele>1420</ele>
        <time>2019-08-21T11:19:33+02:00</time>
      </trkpt>
      <trkpt lat="45.89838" lon="6.40001">
        <ele>1422</ele>
        <time>2019-08-21T11:19:50+02:00</time>
      </trkpt>
      <trkpt lat="45.89829" lon="6.39977">
        <ele>1426</ele>
        <time>2019-08-21T11:20:09+02:00</time>
      </trkpt>
      <trkpt lat="45.89828" lon="6.3995">
        <ele>1430</ele>
        <time>2019-08-21T11:20:24+02:00</time>
      </trkpt>
      <trkpt lat="45.89835" lon="6.39924">
        <ele>1434</ele>
        <time>2019-08-21T11:20:47+02:00</time>
      </trkpt>
      <trkpt lat="45.89851" lon="6.39911">
        <ele>1436</ele>
        <time>2019-08-21T11:21:18+02:00</time>
      </trkpt>
      <trkpt lat="45.89867" lon="6.39895">
        <ele>1439</ele>
        <time>2019-08-21T11:21:36+02:00</time>
      </trkpt>
      <trkpt lat="45.89881" lon="6.3988">
        <ele>1439</ele>
        <time>2019-08-21T11:21:52+02:00</time>
      </trkpt>
      <trkpt lat="45.89885" lon="6.39865">
        <ele>1441</ele>
        <time>2019-08-21T11:23:01+02:00</time>
      </trkpt>
      <trkpt lat="45.89894" lon="6.39837">
        <ele>1443</ele>
        <time>2019-08-21T11:23:15+02:00</time>
      </trkpt>
      <trkpt lat="45.89903" lon="6.39811">
        <ele>1445</ele>
        <time>2019-08-21T11:23:30+02:00</time>
      </trkpt>
      <trkpt lat="45.89908" lon="6.39784">
        <ele>1448</ele>
        <time>2019-08-21T11:23:51+02:00</time>
      </trkpt>
      <trkpt lat="45.89912" lon="6.39759">
        <ele>1449</ele>
        <time>2019-08-21T11:24:08+02:00</time>
      </trkpt>
      <trkpt lat="45.89908" lon="6.39725">
        <ele>1451</ele>
        <time>2019-08-21T11:24:27+02:00</time>
      </trkpt>
      <trkpt lat="45.899" lon="6.3972">
        <ele>1454</ele>
        <time>2019-08-21T11:24:58+02:00</time>
      </trkpt>
      <trkpt lat="45.89882" lon="6.39729">
        <ele>1458</ele>
        <time>2019-08-21T11:25:15+02:00</time>
      </trkpt>
      <trkpt lat="45.89866" lon="6.39743">
        <ele>1462</ele>
        <time>2019-08-21T11:25:31+02:00</time>
      </trkpt>
      <trkpt lat="45.89854" lon="6.39742">
        <ele>1464</ele>
        <time>2021-08-05T12:37:55+02:00</time>
      </trkpt>
      <trkpt lat="45.89856" lon="6.39716">
        <ele>1466</ele>
        <time>2019-08-21T11:26:08+02:00</time>
      </trkpt>
      <trkpt lat="45.8986" lon="6.39678">
        <ele>1468</ele>
        <time>2019-08-21T11:26:23+02:00</time>
      </trkpt>
      <trkpt lat="45.89853" lon="6.39667">
        <ele>1471</ele>
        <time>2019-08-21T11:26:58+02:00</time>
      </trkpt>
      <trkpt lat="45.89835" lon="6.39662">
        <ele>1475</ele>
        <time>2019-08-21T11:27:16+02:00</time>
      </trkpt>
      <trkpt lat="45.89817" lon="6.39655">
        <ele>1478</ele>
        <time>2019-08-21T11:27:34+02:00</time>
      </trkpt>
      <trkpt lat="45.89806" lon="6.39648">
        <ele>1480</ele>
        <time>2021-08-05T12:38:25+02:00</time>
      </trkpt>
      <trkpt lat="45.89805" lon="6.39636">
        <ele>1481</ele>
        <time>2019-08-21T11:28:07+02:00</time>
      </trkpt>
      <trkpt lat="45.89807" lon="6.39609">
        <ele>1484</ele>
        <time>2019-08-21T11:28:23+02:00</time>
      </trkpt>
      <trkpt lat="45.89808" lon="6.39592">
        <ele>1485</ele>
        <time>2021-08-05T12:38:40+02:00</time>
      </trkpt>
      <trkpt lat="45.89796" lon="6.39585">
        <ele>1489</ele>
        <time>2019-08-21T11:30:35+02:00</time>
      </trkpt>
      <trkpt lat="45.8979" lon="6.39591">
        <ele>1490</ele>
        <time>2021-08-05T12:38:50+02:00</time>
      </trkpt>
      <trkpt lat="45.89786" lon="6.39565">
        <ele>1494</ele>
        <time>2019-08-21T11:31:13+02:00</time>
      </trkpt>
      <trkpt lat="45.8976" lon="6.39592">
        <ele>1500</ele>
        <time>2019-08-21T11:32:17+02:00</time>
      </trkpt>
      <trkpt lat="45.89748" lon="6.39612">
        <ele>1504</ele>
        <time>2019-08-21T11:32:39+02:00</time>
      </trkpt>
      <trkpt lat="45.89732" lon="6.3963">
        <ele>1508</ele>
        <time>2019-08-21T11:33:22+02:00</time>
      </trkpt>
      <trkpt lat="45.89716" lon="6.39643">
        <ele>1515</ele>
        <time>2019-08-21T11:33:45+02:00</time>
      </trkpt>
      <trkpt lat="45.89708" lon="6.39666">
        <ele>1517</ele>
        <time>2019-08-21T11:34:08+02:00</time>
      </trkpt>
      <trkpt lat="45.8969" lon="6.39672">
        <ele>1525</ele>
        <time>2019-08-21T11:34:38+02:00</time>
      </trkpt>
      <trkpt lat="45.89677" lon="6.3969">
        <ele>1530</ele>
        <time>2019-08-21T11:35:01+02:00</time>
      </trkpt>
      <trkpt lat="45.89664" lon="6.39709">
        <ele>1535</ele>
        <time>2019-08-21T11:35:32+02:00</time>
      </trkpt>
      <trkpt lat="45.89654" lon="6.39731">
        <ele>1535</ele>
        <time>2019-08-21T11:35:52+02:00</time>
      </trkpt>
      <trkpt lat="45.89643" lon="6.39749">
        <ele>1538</ele>
        <time>2019-08-21T11:36:18+02:00</time>
      </trkpt>
      <trkpt lat="45.89623" lon="6.39748">
        <ele>1545</ele>
        <time>2021-08-05T12:39:50+02:00</time>
      </trkpt>
      <trkpt lat="45.8964" lon="6.39724">
        <ele>1543</ele>
        <time>2019-08-21T11:37:13+02:00</time>
      </trkpt>
      <trkpt lat="45.89642" lon="6.39711">
        <ele>1544</ele>
        <time>2019-08-21T11:37:34+02:00</time>
      </trkpt>
      <trkpt lat="45.89636" lon="6.39694">
        <ele>1547</ele>
        <time>2021-08-05T12:40:05+02:00</time>
      </trkpt>
      <trkpt lat="45.89637" lon="6.39665">
        <ele>1549</ele>
        <time>2019-08-21T11:38:02+02:00</time>
      </trkpt>
      <trkpt lat="45.89637" lon="6.3965">
        <ele>1550</ele>
        <time>2019-08-21T11:40:17+02:00</time>
      </trkpt>
      <trkpt lat="45.89616" lon="6.39663">
        <ele>1554</ele>
        <time>2019-08-21T11:40:35+02:00</time>
      </trkpt>
      <trkpt lat="45.89598" lon="6.39671">
        <ele>1555</ele>
        <time>2019-08-21T11:41:26+02:00</time>
      </trkpt>
      <trkpt lat="45.89579" lon="6.39683">
        <ele>1554</ele>
        <time>2019-08-21T11:41:44+02:00</time>
      </trkpt>
      <trkpt lat="45.89563" lon="6.39696">
        <ele>1553</ele>
        <time>2019-08-21T11:41:57+02:00</time>
      </trkpt>
      <trkpt lat="45.89545" lon="6.39704">
        <ele>1552</ele>
        <time>2019-08-21T11:42:11+02:00</time>
      </trkpt>
      <trkpt lat="45.89527" lon="6.39705">
        <ele>1552</ele>
        <time>2019-08-21T11:42:25+02:00</time>
      </trkpt>
      <trkpt lat="45.89509" lon="6.39693">
        <ele>1555</ele>
        <time>2019-08-21T11:42:40+02:00</time>
      </trkpt>
      <trkpt lat="45.89491" lon="6.39695">
        <ele>1557</ele>
        <time>2019-08-21T11:42:54+02:00</time>
      </trkpt>
      <trkpt lat="45.8947" lon="6.39691">
        <ele>1559</ele>
        <time>2019-08-21T11:43:09+02:00</time>
      </trkpt>
      <trkpt lat="45.89452" lon="6.3969">
        <ele>1557</ele>
        <time>2019-08-21T11:43:22+02:00</time>
      </trkpt>
      <trkpt lat="45.89433" lon="6.39692">
        <ele>1558</ele>
        <time>2019-08-21T11:43:36+02:00</time>
      </trkpt>
      <trkpt lat="45.89418" lon="6.39708">
        <ele>1559</ele>
        <time>2019-08-21T11:43:50+02:00</time>
      </trkpt>
      <trkpt lat="45.89407" lon="6.39731">
        <ele>1562</ele>
        <time>2019-08-21T11:44:05+02:00</time>
      </trkpt>
      <trkpt lat="45.89409" lon="6.39759">
        <ele>1561</ele>
        <time>2019-08-21T11:44:24+02:00</time>
      </trkpt>
      <trkpt lat="45.89406" lon="6.39787">
        <ele>1561</ele>
        <time>2019-08-21T11:44:38+02:00</time>
      </trkpt>
      <trkpt lat="45.89396" lon="6.39809">
        <ele>1562</ele>
        <time>2019-08-21T11:44:55+02:00</time>
      </trkpt>
      <trkpt lat="45.89385" lon="6.39832">
        <ele>1563</ele>
        <time>2019-08-21T11:45:10+02:00</time>
      </trkpt>
      <trkpt lat="45.89379" lon="6.39859">
        <ele>1564</ele>
        <time>2019-08-21T11:45:25+02:00</time>
      </trkpt>
      <trkpt lat="45.89378" lon="6.39886">
        <ele>1565</ele>
        <time>2019-08-21T11:45:45+02:00</time>
      </trkpt>
      <trkpt lat="45.89376" lon="6.39914">
        <ele>1569</ele>
        <time>2019-08-21T11:46:18+02:00</time>
      </trkpt>
      <trkpt lat="45.89379" lon="6.39942">
        <ele>1572</ele>
        <time>2019-08-21T11:46:34+02:00</time>
      </trkpt>
      <trkpt lat="45.89383" lon="6.39968">
        <ele>1573</ele>
        <time>2019-08-21T11:46:50+02:00</time>
      </trkpt>
      <trkpt lat="45.89384" lon="6.39997">
        <ele>1576</ele>
        <time>2019-08-21T11:47:04+02:00</time>
      </trkpt>
      <trkpt lat="45.89385" lon="6.40024">
        <ele>1578</ele>
        <time>2019-08-21T11:47:21+02:00</time>
      </trkpt>
      <trkpt lat="45.89392" lon="6.40053">
        <ele>1578</ele>
        <time>2019-08-21T11:47:36+02:00</time>
      </trkpt>
      <trkpt lat="45.89397" lon="6.40078">
        <ele>1579</ele>
        <time>2019-08-21T11:47:51+02:00</time>
      </trkpt>
      <trkpt lat="45.894" lon="6.40104">
        <ele>1581</ele>
        <time>2019-08-21T11:48:07+02:00</time>
      </trkpt>
      <trkpt lat="45.89407" lon="6.40129">
        <ele>1582</ele>
        <time>2019-08-21T11:48:19+02:00</time>
      </trkpt>
      <trkpt lat="45.89411" lon="6.40155">
        <ele>1585</ele>
        <time>2019-08-21T11:48:35+02:00</time>
      </trkpt>
      <trkpt lat="45.8942" lon="6.4018">
        <ele>1587</ele>
        <time>2019-08-21T11:48:50+02:00</time>
      </trkpt>
      <trkpt lat="45.89429" lon="6.40202">
        <ele>1588</ele>
        <time>2019-08-21T11:49:04+02:00</time>
      </trkpt>
      <trkpt lat="45.89438" lon="6.40227">
        <ele>1590</ele>
        <time>2019-08-21T11:49:20+02:00</time>
      </trkpt>
      <trkpt lat="45.89448" lon="6.40251">
        <ele>1593</ele>
        <time>2019-08-21T11:49:34+02:00</time>
      </trkpt>
      <trkpt lat="45.89452" lon="6.40277">
        <ele>1595</ele>
        <time>2019-08-21T11:49:54+02:00</time>
      </trkpt>
      <trkpt lat="45.89446" lon="6.40304">
        <ele>1601</ele>
        <time>2019-08-21T11:50:10+02:00</time>
      </trkpt>
      <trkpt lat="45.8944" lon="6.4033">
        <ele>1605</ele>
        <time>2019-08-21T11:50:25+02:00</time>
      </trkpt>
      <trkpt lat="45.89432" lon="6.40354">
        <ele>1606</ele>
        <time>2019-08-21T11:50:47+02:00</time>
      </trkpt>
      <trkpt lat="45.89415" lon="6.40368">
        <ele>1608</ele>
        <time>2019-08-21T11:51:06+02:00</time>
      </trkpt>
      <trkpt lat="45.89397" lon="6.40371">
        <ele>1609</ele>
        <time>2019-08-21T11:51:23+02:00</time>
      </trkpt>
      <trkpt lat="45.89383" lon="6.40374">
        <ele>1609</ele>
        <time>2019-08-21T11:52:31+02:00</time>
      </trkpt>
      <trkpt lat="45.89377" lon="6.40377">
        <ele>1609</ele>
        <time>2021-08-05T12:43:40+02:00</time>
      </trkpt>
      <trkpt lat="45.8936" lon="6.40426">
        <ele>1609</ele>
        <time>2019-08-21T11:53:03+02:00</time>
      </trkpt>
      <trkpt lat="45.89365" lon="6.40455">
        <ele>1609</ele>
        <time>2019-08-21T11:53:20+02:00</time>
      </trkpt>
      <trkpt lat="45.89365" lon="6.40488">
        <ele>1611</ele>
        <time>2019-08-21T11:53:35+02:00</time>
      </trkpt>
      <trkpt lat="45.89355" lon="6.40511">
        <ele>1613</ele>
        <time>2019-08-21T11:53:50+02:00</time>
      </trkpt>
      <trkpt lat="45.89339" lon="6.40525">
        <ele>1615</ele>
        <time>2019-08-21T11:54:05+02:00</time>
      </trkpt>
      <trkpt lat="45.89321" lon="6.40532">
        <ele>1615</ele>
        <time>2019-08-21T11:54:20+02:00</time>
      </trkpt>
      <trkpt lat="45.89305" lon="6.40541">
        <ele>1616</ele>
        <time>2019-08-21T11:54:35+02:00</time>
      </trkpt>
      <trkpt lat="45.89309" lon="6.40577">
        <ele>1620</ele>
        <time>2019-08-21T11:55:42+02:00</time>
      </trkpt>
      <trkpt lat="45.89326" lon="6.4059">
        <ele>1621</ele>
        <time>2019-08-21T11:55:56+02:00</time>
      </trkpt>
      <trkpt lat="45.89342" lon="6.40603">
        <ele>1623</ele>
        <time>2019-08-21T11:56:12+02:00</time>
      </trkpt>
      <trkpt lat="45.89352" lon="6.40619">
        <ele>1626</ele>
        <time>2019-08-21T11:56:29+02:00</time>
      </trkpt>
      <trkpt lat="45.89372" lon="6.40634">
        <ele>1627</ele>
        <time>2019-08-21T11:56:54+02:00</time>
      </trkpt>
      <trkpt lat="45.89377" lon="6.40647">
        <ele>1629</ele>
        <time>2019-08-21T11:57:12+02:00</time>
      </trkpt>
      <trkpt lat="45.8937" lon="6.40658">
        <ele>1632</ele>
        <time>2019-08-21T11:58:54+02:00</time>
      </trkpt>
      <trkpt lat="45.89346" lon="6.40667">
        <ele>1632</ele>
        <time>2019-08-21T11:59:11+02:00</time>
      </trkpt>
      <trkpt lat="45.89338" lon="6.40686">
        <ele>1632</ele>
        <time>2019-08-21T11:59:30+02:00</time>
      </trkpt>
      <trkpt lat="45.89352" lon="6.40715">
        <ele>1636</ele>
        <time>2019-08-21T11:59:49+02:00</time>
      </trkpt>
      <trkpt lat="45.89364" lon="6.40723">
        <ele>1640</ele>
        <time>2021-08-05T12:45:10+02:00</time>
      </trkpt>
      <trkpt lat="45.8938" lon="6.40719">
        <ele>1640</ele>
        <time>2019-08-21T12:00:20+02:00</time>
      </trkpt>
      <trkpt lat="45.89365" lon="6.40725">
        <ele>1640</ele>
        <time>2021-08-05T12:45:20+02:00</time>
      </trkpt>
      <trkpt lat="45.89352" lon="6.40714">
        <ele>1636</ele>
        <time>2019-08-21T12:14:12+02:00</time>
      </trkpt>
      <trkpt lat="45.89339" lon="6.40686">
        <ele>1632</ele>
        <time>2019-08-21T12:14:39+02:00</time>
      </trkpt>
      <trkpt lat="45.89346" lon="6.40668">
        <ele>1632</ele>
        <time>2019-08-21T12:15:00+02:00</time>
      </trkpt>
      <trkpt lat="45.89369" lon="6.4066">
        <ele>1632</ele>
        <time>2019-08-21T12:15:17+02:00</time>
      </trkpt>
      <trkpt lat="45.89377" lon="6.40646">
        <ele>1629</ele>
        <time>2021-08-05T12:45:45+02:00</time>
      </trkpt>
      <trkpt lat="45.89372" lon="6.40639">
        <ele>1628</ele>
        <time>2019-08-21T12:15:35+02:00</time>
      </trkpt>
      <trkpt lat="45.89351" lon="6.40621">
        <ele>1626</ele>
        <time>2019-08-21T12:18:22+02:00</time>
      </trkpt>
      <trkpt lat="45.89338" lon="6.40601">
        <ele>1623</ele>
        <time>2019-08-21T12:18:39+02:00</time>
      </trkpt>
      <trkpt lat="45.89323" lon="6.40584">
        <ele>1620</ele>
        <time>2019-08-21T12:18:54+02:00</time>
      </trkpt>
      <trkpt lat="45.8931" lon="6.40576">
        <ele>1619</ele>
        <time>2019-08-21T12:19:11+02:00</time>
      </trkpt>
      <trkpt lat="45.89305" lon="6.40542">
        <ele>1616</ele>
        <time>2019-08-21T12:19:45+02:00</time>
      </trkpt>
      <trkpt lat="45.89321" lon="6.4053">
        <ele>1615</ele>
        <time>2019-08-21T12:20:00+02:00</time>
      </trkpt>
      <trkpt lat="45.8934" lon="6.40522">
        <ele>1614</ele>
        <time>2019-08-21T12:20:20+02:00</time>
      </trkpt>
      <trkpt lat="45.89357" lon="6.40507">
        <ele>1613</ele>
        <time>2019-08-21T12:20:35+02:00</time>
      </trkpt>
      <trkpt lat="45.89364" lon="6.40483">
        <ele>1610</ele>
        <time>2019-08-21T12:20:50+02:00</time>
      </trkpt>
      <trkpt lat="45.89364" lon="6.40453">
        <ele>1609</ele>
        <time>2019-08-21T12:21:06+02:00</time>
      </trkpt>
      <trkpt lat="45.89359" lon="6.40425">
        <ele>1609</ele>
        <time>2019-08-21T12:21:20+02:00</time>
      </trkpt>
      <trkpt lat="45.89377" lon="6.40375">
        <ele>1609</ele>
        <time>2019-08-21T12:21:50+02:00</time>
      </trkpt>
      <trkpt lat="45.89383" lon="6.40372">
        <ele>1609</ele>
        <time>2019-08-21T12:22:04+02:00</time>
      </trkpt>
      <trkpt lat="45.89345" lon="6.40228">
        <ele>1610</ele>
        <time>2019-08-21T12:23:27+02:00</time>
      </trkpt>
      <trkpt lat="45.89338" lon="6.40198">
        <ele>1612</ele>
        <time>2019-08-21T12:23:42+02:00</time>
      </trkpt>
      <trkpt lat="45.8933" lon="6.40171">
        <ele>1615</ele>
        <time>2019-08-21T12:23:58+02:00</time>
      </trkpt>
      <trkpt lat="45.89321" lon="6.40147">
        <ele>1616</ele>
        <time>2019-08-21T12:24:15+02:00</time>
      </trkpt>
      <trkpt lat="45.89313" lon="6.40124">
        <ele>1616</ele>
        <time>2019-08-21T12:24:48+02:00</time>
      </trkpt>
      <trkpt lat="45.89303" lon="6.40102">
        <ele>1616</ele>
        <time>2019-08-21T12:25:03+02:00</time>
      </trkpt>
      <trkpt lat="45.89289" lon="6.40082">
        <ele>1614</ele>
        <time>2019-08-21T12:25:18+02:00</time>
      </trkpt>
      <trkpt lat="45.8929" lon="6.40049">
        <ele>1617</ele>
        <time>2019-08-21T12:25:34+02:00</time>
      </trkpt>
      <trkpt lat="45.89288" lon="6.40025">
        <ele>1618</ele>
        <time>2019-08-21T12:25:51+02:00</time>
      </trkpt>
      <trkpt lat="45.89276" lon="6.40004">
        <ele>1619</ele>
        <time>2019-08-21T12:26:10+02:00</time>
      </trkpt>
      <trkpt lat="45.89271" lon="6.39978">
        <ele>1623</ele>
        <time>2019-08-21T12:26:27+02:00</time>
      </trkpt>
      <trkpt lat="45.89254" lon="6.39964">
        <ele>1623</ele>
        <time>2019-08-21T12:26:43+02:00</time>
      </trkpt>
      <trkpt lat="45.89243" lon="6.39942">
        <ele>1624</ele>
        <time>2019-08-21T12:27:15+02:00</time>
      </trkpt>
      <trkpt lat="45.89236" lon="6.39919">
        <ele>1625</ele>
        <time>2019-08-21T12:27:59+02:00</time>
      </trkpt>
      <trkpt lat="45.89238" lon="6.39892">
        <ele>1624</ele>
        <time>2019-08-21T12:28:17+02:00</time>
      </trkpt>
      <trkpt lat="45.89246" lon="6.39868">
        <ele>1623</ele>
        <time>2019-08-21T12:28:32+02:00</time>
      </trkpt>
      <trkpt lat="45.89247" lon="6.39841">
        <ele>1619</ele>
        <time>2019-08-21T12:28:48+02:00</time>
      </trkpt>
      <trkpt lat="45.89247" lon="6.39814">
        <ele>1614</ele>
        <time>2019-08-21T12:29:04+02:00</time>
      </trkpt>
      <trkpt lat="45.89247" lon="6.39787">
        <ele>1611</ele>
        <time>2019-08-21T12:29:18+02:00</time>
      </trkpt>
      <trkpt lat="45.89248" lon="6.3976">
        <ele>1610</ele>
        <time>2019-08-21T12:29:32+02:00</time>
      </trkpt>
      <trkpt lat="45.89248" lon="6.39732">
        <ele>1610</ele>
        <time>2019-08-21T12:29:47+02:00</time>
      </trkpt>
      <trkpt lat="45.89251" lon="6.39704">
        <ele>1610</ele>
        <time>2019-08-21T12:30:02+02:00</time>
      </trkpt>
      <trkpt lat="45.89249" lon="6.39676">
        <ele>1610</ele>
        <time>2019-08-21T12:30:17+02:00</time>
      </trkpt>
      <trkpt lat="45.89247" lon="6.39648">
        <ele>1610</ele>
        <time>2019-08-21T12:30:32+02:00</time>
      </trkpt>
      <trkpt lat="45.89247" lon="6.3962">
        <ele>1611</ele>
        <time>2019-08-21T12:31:10+02:00</time>
      </trkpt>
      <trkpt lat="45.89239" lon="6.39595">
        <ele>1613</ele>
        <time>2019-08-21T12:32:06+02:00</time>
      </trkpt>
      <trkpt lat="45.89226" lon="6.39575">
        <ele>1615</ele>
        <time>2019-08-21T12:32:23+02:00</time>
      </trkpt>
      <trkpt lat="45.89214" lon="6.39553">
        <ele>1617</ele>
        <time>2019-08-21T12:32:39+02:00</time>
      </trkpt>
      <trkpt lat="45.89204" lon="6.39532">
        <ele>1617</ele>
        <time>2019-08-21T12:32:53+02:00</time>
      </trkpt>
      <trkpt lat="45.89195" lon="6.39508">
        <ele>1618</ele>
        <time>2019-08-21T12:33:07+02:00</time>
      </trkpt>
      <trkpt lat="45.89187" lon="6.39484">
        <ele>1617</ele>
        <time>2019-08-21T12:33:29+02:00</time>
      </trkpt>
      <trkpt lat="45.89182" lon="6.39458">
        <ele>1618</ele>
        <time>2019-08-21T12:33:46+02:00</time>
      </trkpt>
      <trkpt lat="45.89179" lon="6.39431">
        <ele>1618</ele>
        <time>2019-08-21T12:35:00+02:00</time>
      </trkpt>
      <trkpt lat="45.89181" lon="6.39404">
        <ele>1619</ele>
        <time>2019-08-21T12:35:54+02:00</time>
      </trkpt>
      <trkpt lat="45.89184" lon="6.39376">
        <ele>1619</ele>
        <time>2019-08-21T12:36:09+02:00</time>
      </trkpt>
      <trkpt lat="45.89183" lon="6.3935">
        <ele>1618</ele>
        <time>2019-08-21T12:36:33+02:00</time>
      </trkpt>
      <trkpt lat="45.89178" lon="6.39322">
        <ele>1615</ele>
        <time>2019-08-21T12:36:56+02:00</time>
      </trkpt>
      <trkpt lat="45.89171" lon="6.39296">
        <ele>1613</ele>
        <time>2019-08-21T12:37:10+02:00</time>
      </trkpt>
      <trkpt lat="45.89165" lon="6.39269">
        <ele>1611</ele>
        <time>2019-08-21T12:37:24+02:00</time>
      </trkpt>
      <trkpt lat="45.89162" lon="6.39241">
        <ele>1610</ele>
        <time>2019-08-21T12:37:39+02:00</time>
      </trkpt>
      <trkpt lat="45.89158" lon="6.39214">
        <ele>1608</ele>
        <time>2019-08-21T12:37:55+02:00</time>
      </trkpt>
      <trkpt lat="45.89151" lon="6.39189">
        <ele>1607</ele>
        <time>2019-08-21T12:38:38+02:00</time>
      </trkpt>
      <trkpt lat="45.89141" lon="6.39165">
        <ele>1605</ele>
        <time>2019-08-21T12:38:54+02:00</time>
      </trkpt>
      <trkpt lat="45.89127" lon="6.39145">
        <ele>1603</ele>
        <time>2019-08-21T12:39:09+02:00</time>
      </trkpt>
      <trkpt lat="45.89115" lon="6.39124">
        <ele>1602</ele>
        <time>2019-08-21T12:39:23+02:00</time>
      </trkpt>
      <trkpt lat="45.89107" lon="6.39099">
        <ele>1600</ele>
        <time>2019-08-21T12:39:38+02:00</time>
      </trkpt>
      <trkpt lat="45.89095" lon="6.39078">
        <ele>1597</ele>
        <time>2019-08-21T12:39:53+02:00</time>
      </trkpt>
      <trkpt lat="45.89078" lon="6.39062">
        <ele>1594</ele>
        <time>2019-08-21T12:40:09+02:00</time>
      </trkpt>
      <trkpt lat="45.8907" lon="6.39038">
        <ele>1592</ele>
        <time>2019-08-21T12:40:27+02:00</time>
      </trkpt>
      <trkpt lat="45.8906" lon="6.39016">
        <ele>1590</ele>
        <time>2019-08-21T12:40:40+02:00</time>
      </trkpt>
      <trkpt lat="45.89051" lon="6.38992">
        <ele>1588</ele>
        <time>2019-08-21T12:40:56+02:00</time>
      </trkpt>
      <trkpt lat="45.89048" lon="6.38964">
        <ele>1586</ele>
        <time>2019-08-21T12:41:12+02:00</time>
      </trkpt>
      <trkpt lat="45.8905" lon="6.38937">
        <ele>1584</ele>
        <time>2019-08-21T12:41:27+02:00</time>
      </trkpt>
      <trkpt lat="45.89052" lon="6.3891">
        <ele>1582</ele>
        <time>2019-08-21T12:41:43+02:00</time>
      </trkpt>
      <trkpt lat="45.89049" lon="6.38885">
        <ele>1580</ele>
        <time>2019-08-21T12:42:00+02:00</time>
      </trkpt>
      <trkpt lat="45.89043" lon="6.38859">
        <ele>1577</ele>
        <time>2019-08-21T12:42:16+02:00</time>
      </trkpt>
      <trkpt lat="45.8903" lon="6.38844">
        <ele>1576</ele>
        <time>2019-08-21T12:42:35+02:00</time>
      </trkpt>
      <trkpt lat="45.89016" lon="6.3883">
        <ele>1574</ele>
        <time>2019-08-21T12:42:52+02:00</time>
      </trkpt>
      <trkpt lat="45.89013" lon="6.38809">
        <ele>1574</ele>
        <time>2021-08-05T12:51:50+02:00</time>
      </trkpt>
      <trkpt lat="45.89004" lon="6.38816">
        <ele>1574</ele>
        <time>2019-08-21T12:43:36+02:00</time>
      </trkpt>
      <trkpt lat="45.88985" lon="6.38834">
        <ele>1574</ele>
        <time>2019-08-21T12:43:51+02:00</time>
      </trkpt>
      <trkpt lat="45.88972" lon="6.38849">
        <ele>1573</ele>
        <time>2019-08-21T12:44:08+02:00</time>
      </trkpt>
      <trkpt lat="45.88955" lon="6.38875">
        <ele>1573</ele>
        <time>2019-08-21T12:44:25+02:00</time>
      </trkpt>
      <trkpt lat="45.88949" lon="6.38896">
        <ele>1574</ele>
        <time>2021-08-05T12:52:15+02:00</time>
      </trkpt>
      <trkpt lat="45.88949" lon="6.38928">
        <ele>1577</ele>
        <time>2019-08-21T12:44:55+02:00</time>
      </trkpt>
      <trkpt lat="45.88947" lon="6.3895">
        <ele>1579</ele>
        <time>2019-08-21T12:45:11+02:00</time>
      </trkpt>
      <trkpt lat="45.88938" lon="6.38975">
        <ele>1580</ele>
        <time>2019-08-21T12:45:25+02:00</time>
      </trkpt>
      <trkpt lat="45.88927" lon="6.38996">
        <ele>1581</ele>
        <time>2019-08-21T12:45:39+02:00</time>
      </trkpt>
      <trkpt lat="45.88912" lon="6.39011">
        <ele>1581</ele>
        <time>2019-08-21T12:45:54+02:00</time>
      </trkpt>
      <trkpt lat="45.88894" lon="6.39019">
        <ele>1582</ele>
        <time>2019-08-21T12:46:19+02:00</time>
      </trkpt>
      <trkpt lat="45.88874" lon="6.39013">
        <ele>1582</ele>
        <time>2019-08-21T12:46:55+02:00</time>
      </trkpt>
      <trkpt lat="45.88858" lon="6.39001">
        <ele>1581</ele>
        <time>2019-08-21T12:47:31+02:00</time>
      </trkpt>
      <trkpt lat="45.8884" lon="6.38987">
        <ele>1580</ele>
        <time>2019-08-21T12:47:48+02:00</time>
      </trkpt>
      <trkpt lat="45.88825" lon="6.38972">
        <ele>1580</ele>
        <time>2019-08-21T12:48:02+02:00</time>
      </trkpt>
      <trkpt lat="45.88809" lon="6.38957">
        <ele>1580</ele>
        <time>2019-08-21T12:48:16+02:00</time>
      </trkpt>
      <trkpt lat="45.88792" lon="6.38944">
        <ele>1579</ele>
        <time>2019-08-21T12:48:34+02:00</time>
      </trkpt>
      <trkpt lat="45.88776" lon="6.38931">
        <ele>1580</ele>
        <time>2019-08-21T12:48:50+02:00</time>
      </trkpt>
      <trkpt lat="45.8876" lon="6.38914">
        <ele>1580</ele>
        <time>2019-08-21T12:49:16+02:00</time>
      </trkpt>
      <trkpt lat="45.88744" lon="6.38906">
        <ele>1582</ele>
        <time>2019-08-21T12:49:33+02:00</time>
      </trkpt>
      <trkpt lat="45.88726" lon="6.389">
        <ele>1587</ele>
        <time>2019-08-21T12:49:52+02:00</time>
      </trkpt>
      <trkpt lat="45.88713" lon="6.38882">
        <ele>1589</ele>
        <time>2019-08-21T12:50:07+02:00</time>
      </trkpt>
      <trkpt lat="45.88702" lon="6.38862">
        <ele>1590</ele>
        <time>2019-08-21T12:50:21+02:00</time>
      </trkpt>
      <trkpt lat="45.88695" lon="6.38834">
        <ele>1590</ele>
        <time>2019-08-21T12:50:35+02:00</time>
      </trkpt>
      <trkpt lat="45.88685" lon="6.38803">
        <ele>1590</ele>
        <time>2019-08-21T12:50:47+02:00</time>
      </trkpt>
      <trkpt lat="45.88675" lon="6.38779">
        <ele>1591</ele>
        <time>2019-08-21T12:51:02+02:00</time>
      </trkpt>
      <trkpt lat="45.88663" lon="6.38756">
        <ele>1592</ele>
        <time>2019-08-21T12:51:18+02:00</time>
      </trkpt>
      <trkpt lat="45.88657" lon="6.3873">
        <ele>1594</ele>
        <time>2019-08-21T12:51:32+02:00</time>
      </trkpt>
      <trkpt lat="45.88647" lon="6.38712">
        <ele>1596</ele>
        <time>2019-08-21T12:51:46+02:00</time>
      </trkpt>
      <trkpt lat="45.88649" lon="6.38688">
        <ele>1597</ele>
        <time>2019-08-21T12:52:00+02:00</time>
      </trkpt>
      <trkpt lat="45.88677" lon="6.38666">
        <ele>1601</ele>
        <time>2019-08-21T12:52:15+02:00</time>
      </trkpt>
      <trkpt lat="45.88676" lon="6.38651">
        <ele>1603</ele>
        <time>2019-08-21T12:52:33+02:00</time>
      </trkpt>
      <trkpt lat="45.88666" lon="6.38618">
        <ele>1608</ele>
        <time>2019-08-21T12:52:53+02:00</time>
      </trkpt>
      <trkpt lat="45.88654" lon="6.38596">
        <ele>1611</ele>
        <time>2019-08-21T12:53:09+02:00</time>
      </trkpt>
      <trkpt lat="45.88644" lon="6.38572">
        <ele>1615</ele>
        <time>2019-08-21T12:53:27+02:00</time>
      </trkpt>
      <trkpt lat="45.88633" lon="6.38552">
        <ele>1618</ele>
        <time>2019-08-21T12:54:34+02:00</time>
      </trkpt>
      <trkpt lat="45.88631" lon="6.38526">
        <ele>1622</ele>
        <time>2019-08-21T12:55:03+02:00</time>
      </trkpt>
      <trkpt lat="45.88626" lon="6.38502">
        <ele>1624</ele>
        <time>2019-08-21T12:55:25+02:00</time>
      </trkpt>
      <trkpt lat="45.88624" lon="6.3848">
        <ele>1627</ele>
        <time>2019-08-21T12:55:54+02:00</time>
      </trkpt>
      <trkpt lat="45.88618" lon="6.3846">
        <ele>1629</ele>
        <time>2019-08-21T12:56:09+02:00</time>
      </trkpt>
      <trkpt lat="45.88603" lon="6.38438">
        <ele>1629</ele>
        <time>2019-08-21T12:56:26+02:00</time>
      </trkpt>
      <trkpt lat="45.88592" lon="6.38403">
        <ele>1629</ele>
        <time>2019-08-21T12:56:41+02:00</time>
      </trkpt>
      <trkpt lat="45.88586" lon="6.38387">
        <ele>1630</ele>
        <time>2021-08-05T12:55:25+02:00</time>
      </trkpt>
      <trkpt lat="45.88587" lon="6.38363">
        <ele>1630</ele>
        <time>2019-08-21T12:56:57+02:00</time>
      </trkpt>
      <trkpt lat="45.88584" lon="6.38329">
        <ele>1631</ele>
        <time>2021-08-05T12:55:35+02:00</time>
      </trkpt>
      <trkpt lat="45.88584" lon="6.38291">
        <ele>1632</ele>
        <time>2021-08-05T12:55:40+02:00</time>
      </trkpt>
      <trkpt lat="45.88571" lon="6.3822">
        <ele>1634</ele>
        <time>2019-08-21T12:58:28+02:00</time>
      </trkpt>
      <trkpt lat="45.88563" lon="6.3819">
        <ele>1636</ele>
        <time>2019-08-21T12:58:48+02:00</time>
      </trkpt>
      <trkpt lat="45.88561" lon="6.38153">
        <ele>1638</ele>
        <time>2019-08-21T12:59:04+02:00</time>
      </trkpt>
      <trkpt lat="45.88562" lon="6.3814">
        <ele>1638</ele>
        <time>2019-08-21T12:59:30+02:00</time>
      </trkpt>
      <trkpt lat="45.88559" lon="6.38113">
        <ele>1645</ele>
        <time>2019-08-21T13:00:10+02:00</time>
      </trkpt>
      <trkpt lat="45.88557" lon="6.38087">
        <ele>1650</ele>
        <time>2019-08-21T13:00:52+02:00</time>
      </trkpt>
      <trkpt lat="45.88545" lon="6.38068">
        <ele>1655</ele>
        <time>2019-08-21T13:01:20+02:00</time>
      </trkpt>
      <trkpt lat="45.88532" lon="6.38046">
        <ele>1663</ele>
        <time>2019-08-21T13:02:57+02:00</time>
      </trkpt>
      <trkpt lat="45.88528" lon="6.38022">
        <ele>1669</ele>
        <time>2019-08-21T13:03:29+02:00</time>
      </trkpt>
      <trkpt lat="45.88532" lon="6.37996">
        <ele>1674</ele>
        <time>2019-08-21T13:03:51+02:00</time>
      </trkpt>
      <trkpt lat="45.88538" lon="6.3797">
        <ele>1675</ele>
        <time>2019-08-21T13:04:20+02:00</time>
      </trkpt>
      <trkpt lat="45.88531" lon="6.37942">
        <ele>1682</ele>
        <time>2019-08-21T13:04:46+02:00</time>
      </trkpt>
      <trkpt lat="45.88521" lon="6.37929">
        <ele>1684</ele>
        <time>2019-08-21T13:05:17+02:00</time>
      </trkpt>
      <trkpt lat="45.885" lon="6.37895">
        <ele>1689</ele>
        <time>2019-08-21T13:05:39+02:00</time>
      </trkpt>
      <trkpt lat="45.88495" lon="6.37877">
        <ele>1688</ele>
        <time>2019-08-21T13:06:06+02:00</time>
      </trkpt>
      <trkpt lat="45.88493" lon="6.37861">
        <ele>1687</ele>
        <time>2019-08-21T13:06:30+02:00</time>
      </trkpt>
      <trkpt lat="45.88497" lon="6.37834">
        <ele>1686</ele>
        <time>2019-08-21T13:06:48+02:00</time>
      </trkpt>
      <trkpt lat="45.88502" lon="6.37803">
        <ele>1683</ele>
        <time>2019-08-21T13:07:06+02:00</time>
      </trkpt>
      <trkpt lat="45.88508" lon="6.37781">
        <ele>1681</ele>
        <time>2019-08-21T13:07:25+02:00</time>
      </trkpt>
      <trkpt lat="45.88516" lon="6.37756">
        <ele>1679</ele>
        <time>2019-08-21T13:07:45+02:00</time>
      </trkpt>
      <trkpt lat="45.88526" lon="6.37731">
        <ele>1678</ele>
        <time>2019-08-21T13:08:00+02:00</time>
      </trkpt>
      <trkpt lat="45.88532" lon="6.37707">
        <ele>1679</ele>
        <time>2019-08-21T13:08:13+02:00</time>
      </trkpt>
      <trkpt lat="45.8853" lon="6.37679">
        <ele>1681</ele>
        <time>2019-08-21T13:08:33+02:00</time>
      </trkpt>
      <trkpt lat="45.88528" lon="6.37653">
        <ele>1683</ele>
        <time>2019-08-21T13:09:01+02:00</time>
      </trkpt>
      <trkpt lat="45.88523" lon="6.37598">
        <ele>1686</ele>
        <time>2019-08-21T13:09:42+02:00</time>
      </trkpt>
      <trkpt lat="45.88517" lon="6.37565">
        <ele>1687</ele>
        <time>2019-08-21T13:09:57+02:00</time>
      </trkpt>
      <trkpt lat="45.88516" lon="6.37543">
        <ele>1689</ele>
        <time>2019-08-21T13:10:10+02:00</time>
      </trkpt>
      <trkpt lat="45.88517" lon="6.37517">
        <ele>1687</ele>
        <time>2019-08-21T13:15:24+02:00</time>
      </trkpt>
      <trkpt lat="45.88515" lon="6.37543">
        <ele>1689</ele>
        <time>2019-08-21T13:43:11+02:00</time>
      </trkpt>
      <trkpt lat="45.88515" lon="6.37566">
        <ele>1687</ele>
        <time>2019-08-21T13:43:33+02:00</time>
      </trkpt>
      <trkpt lat="45.8852" lon="6.37592">
        <ele>1686</ele>
        <time>2019-08-21T13:43:55+02:00</time>
      </trkpt>
      <trkpt lat="45.88524" lon="6.37618">
        <ele>1684</ele>
        <time>2019-08-21T13:44:21+02:00</time>
      </trkpt>
      <trkpt lat="45.88534" lon="6.37706">
        <ele>1678</ele>
        <time>2019-08-21T13:45:15+02:00</time>
      </trkpt>
      <trkpt lat="45.885" lon="6.37802">
        <ele>1683</ele>
        <time>2019-08-21T13:46:29+02:00</time>
      </trkpt>
      <trkpt lat="45.88495" lon="6.37832">
        <ele>1685</ele>
        <time>2019-08-21T13:46:48+02:00</time>
      </trkpt>
      <trkpt lat="45.88491" lon="6.37856">
        <ele>1686</ele>
        <time>2019-08-21T13:47:03+02:00</time>
      </trkpt>
      <trkpt lat="45.88494" lon="6.37877">
        <ele>1688</ele>
        <time>2019-08-21T13:47:20+02:00</time>
      </trkpt>
      <trkpt lat="45.88485" lon="6.37901">
        <ele>1689</ele>
        <time>2019-08-21T13:47:35+02:00</time>
      </trkpt>
      <trkpt lat="45.88464" lon="6.3796">
        <ele>1690</ele>
        <time>2019-08-21T13:47:50+02:00</time>
      </trkpt>
      <trkpt lat="45.88487" lon="6.37902">
        <ele>1689</ele>
        <time>2019-08-21T13:53:03+02:00</time>
      </trkpt>
      <trkpt lat="45.88494" lon="6.37882">
        <ele>1688</ele>
        <time>2021-08-05T12:59:05+02:00</time>
      </trkpt>
      <trkpt lat="45.88499" lon="6.37896">
        <ele>1689</ele>
        <time>2019-08-21T13:53:33+02:00</time>
      </trkpt>
      <trkpt lat="45.88516" lon="6.37925">
        <ele>1686</ele>
        <time>2019-08-21T13:53:57+02:00</time>
      </trkpt>
      <trkpt lat="45.8853" lon="6.37942">
        <ele>1682</ele>
        <time>2019-08-21T13:54:20+02:00</time>
      </trkpt>
      <trkpt lat="45.88537" lon="6.37967">
        <ele>1676</ele>
        <time>2019-08-21T13:55:09+02:00</time>
      </trkpt>
      <trkpt lat="45.88531" lon="6.37995">
        <ele>1674</ele>
        <time>2019-08-21T13:55:28+02:00</time>
      </trkpt>
      <trkpt lat="45.88528" lon="6.38022">
        <ele>1669</ele>
        <time>2019-08-21T13:55:46+02:00</time>
      </trkpt>
      <trkpt lat="45.88532" lon="6.38046">
        <ele>1663</ele>
        <time>2021-08-05T12:59:40+02:00</time>
      </trkpt>
      <trkpt lat="45.88545" lon="6.38067">
        <ele>1655</ele>
        <time>2019-08-21T13:56:09+02:00</time>
      </trkpt>
      <trkpt lat="45.88557" lon="6.38086">
        <ele>1651</ele>
        <time>2019-08-21T13:56:30+02:00</time>
      </trkpt>
      <trkpt lat="45.88557" lon="6.38093">
        <ele>1650</ele>
        <time>2019-08-21T13:56:52+02:00</time>
      </trkpt>
      <trkpt lat="45.8856" lon="6.3812">
        <ele>1643</ele>
        <time>2019-08-21T13:57:23+02:00</time>
      </trkpt>
      <trkpt lat="45.88563" lon="6.38141">
        <ele>1638</ele>
        <time>2019-08-21T13:57:47+02:00</time>
      </trkpt>
      <trkpt lat="45.88561" lon="6.38154">
        <ele>1638</ele>
        <time>2019-08-21T13:58:05+02:00</time>
      </trkpt>
      <trkpt lat="45.88562" lon="6.38191">
        <ele>1636</ele>
        <time>2019-08-21T13:58:31+02:00</time>
      </trkpt>
      <trkpt lat="45.88571" lon="6.38219">
        <ele>1634</ele>
        <time>2019-08-21T13:58:49+02:00</time>
      </trkpt>
      <trkpt lat="45.88582" lon="6.3829">
        <ele>1632</ele>
        <time>2021-08-05T13:00:25+02:00</time>
      </trkpt>
      <trkpt lat="45.88582" lon="6.38327">
        <ele>1631</ele>
        <time>2021-08-05T13:00:30+02:00</time>
      </trkpt>
      <trkpt lat="45.88587" lon="6.38363">
        <ele>1630</ele>
        <time>2019-08-21T14:00:10+02:00</time>
      </trkpt>
      <trkpt lat="45.88585" lon="6.38387">
        <ele>1630</ele>
        <time>2019-08-21T14:00:26+02:00</time>
      </trkpt>
      <trkpt lat="45.88593" lon="6.38403">
        <ele>1629</ele>
        <time>2019-08-21T14:00:40+02:00</time>
      </trkpt>
      <trkpt lat="45.88603" lon="6.38438">
        <ele>1629</ele>
        <time>2019-08-21T14:00:55+02:00</time>
      </trkpt>
      <trkpt lat="45.88619" lon="6.38457">
        <ele>1629</ele>
        <time>2019-08-21T14:01:17+02:00</time>
      </trkpt>
      <trkpt lat="45.88624" lon="6.38481">
        <ele>1627</ele>
        <time>2019-08-21T14:01:33+02:00</time>
      </trkpt>
      <trkpt lat="45.88626" lon="6.38502">
        <ele>1624</ele>
        <time>2019-08-21T14:01:51+02:00</time>
      </trkpt>
      <trkpt lat="45.88631" lon="6.38527">
        <ele>1621</ele>
        <time>2019-08-21T14:02:09+02:00</time>
      </trkpt>
      <trkpt lat="45.88634" lon="6.38552">
        <ele>1618</ele>
        <time>2019-08-21T14:02:28+02:00</time>
      </trkpt>
      <trkpt lat="45.88648" lon="6.38583">
        <ele>1614</ele>
        <time>2019-08-21T14:02:45+02:00</time>
      </trkpt>
      <trkpt lat="45.8866" lon="6.38603">
        <ele>1610</ele>
        <time>2019-08-21T14:03:02+02:00</time>
      </trkpt>
      <trkpt lat="45.88671" lon="6.38626">
        <ele>1607</ele>
        <time>2019-08-21T14:03:21+02:00</time>
      </trkpt>
      <trkpt lat="45.88677" lon="6.38652">
        <ele>1603</ele>
        <time>2019-08-21T14:03:40+02:00</time>
      </trkpt>
      <trkpt lat="45.88679" lon="6.38667">
        <ele>1601</ele>
        <time>2019-08-21T14:03:57+02:00</time>
      </trkpt>
      <trkpt lat="45.8865" lon="6.38688">
        <ele>1597</ele>
        <time>2019-08-21T14:04:11+02:00</time>
      </trkpt>
      <trkpt lat="45.88647" lon="6.38712">
        <ele>1596</ele>
        <time>2019-08-21T14:04:26+02:00</time>
      </trkpt>
      <trkpt lat="45.88657" lon="6.38739">
        <ele>1593</ele>
        <time>2019-08-21T14:04:41+02:00</time>
      </trkpt>
      <trkpt lat="45.88666" lon="6.38766">
        <ele>1591</ele>
        <time>2019-08-21T14:04:56+02:00</time>
      </trkpt>
      <trkpt lat="45.88677" lon="6.38788">
        <ele>1590</ele>
        <time>2019-08-21T14:05:11+02:00</time>
      </trkpt>
      <trkpt lat="45.88688" lon="6.38809">
        <ele>1590</ele>
        <time>2019-08-21T14:05:26+02:00</time>
      </trkpt>
      <trkpt lat="45.88695" lon="6.38834">
        <ele>1590</ele>
        <time>2019-08-21T14:05:42+02:00</time>
      </trkpt>
      <trkpt lat="45.88703" lon="6.38861">
        <ele>1590</ele>
        <time>2019-08-21T14:05:59+02:00</time>
      </trkpt>
      <trkpt lat="45.88713" lon="6.38885">
        <ele>1589</ele>
        <time>2019-08-21T14:06:13+02:00</time>
      </trkpt>
      <trkpt lat="45.88727" lon="6.38903">
        <ele>1587</ele>
        <time>2019-08-21T14:06:28+02:00</time>
      </trkpt>
      <trkpt lat="45.88745" lon="6.38909">
        <ele>1582</ele>
        <time>2019-08-21T14:06:43+02:00</time>
      </trkpt>
      <trkpt lat="45.88763" lon="6.38919">
        <ele>1580</ele>
        <time>2019-08-21T14:06:59+02:00</time>
      </trkpt>
      <trkpt lat="45.88778" lon="6.38936">
        <ele>1579</ele>
        <time>2019-08-21T14:07:13+02:00</time>
      </trkpt>
      <trkpt lat="45.88795" lon="6.38947">
        <ele>1579</ele>
        <time>2019-08-21T14:07:26+02:00</time>
      </trkpt>
      <trkpt lat="45.8881" lon="6.38964">
        <ele>1581</ele>
        <time>2019-08-21T14:07:40+02:00</time>
      </trkpt>
      <trkpt lat="45.88824" lon="6.38979">
        <ele>1581</ele>
        <time>2019-08-21T14:07:53+02:00</time>
      </trkpt>
      <trkpt lat="45.8884" lon="6.38995">
        <ele>1582</ele>
        <time>2019-08-21T14:08:08+02:00</time>
      </trkpt>
      <trkpt lat="45.88858" lon="6.39006">
        <ele>1581</ele>
        <time>2019-08-21T14:08:23+02:00</time>
      </trkpt>
      <trkpt lat="45.88874" lon="6.39018">
        <ele>1582</ele>
        <time>2019-08-21T14:08:42+02:00</time>
      </trkpt>
      <trkpt lat="45.88894" lon="6.39022">
        <ele>1582</ele>
        <time>2019-08-21T14:08:56+02:00</time>
      </trkpt>
      <trkpt lat="45.88912" lon="6.39019">
        <ele>1581</ele>
        <time>2019-08-21T14:09:19+02:00</time>
      </trkpt>
      <trkpt lat="45.88924" lon="6.38998">
        <ele>1581</ele>
        <time>2019-08-21T14:09:34+02:00</time>
      </trkpt>
      <trkpt lat="45.88936" lon="6.38977">
        <ele>1580</ele>
        <time>2019-08-21T14:09:56+02:00</time>
      </trkpt>
      <trkpt lat="45.88944" lon="6.38952">
        <ele>1579</ele>
        <time>2019-08-21T14:10:11+02:00</time>
      </trkpt>
      <trkpt lat="45.88948" lon="6.38927">
        <ele>1577</ele>
        <time>2019-08-21T14:10:26+02:00</time>
      </trkpt>
      <trkpt lat="45.88948" lon="6.38895">
        <ele>1574</ele>
        <time>2021-08-05T13:03:50+02:00</time>
      </trkpt>
      <trkpt lat="45.88953" lon="6.38874">
        <ele>1573</ele>
        <time>2019-08-21T14:10:54+02:00</time>
      </trkpt>
      <trkpt lat="45.8897" lon="6.38848">
        <ele>1573</ele>
        <time>2019-08-21T14:11:09+02:00</time>
      </trkpt>
      <trkpt lat="45.88984" lon="6.38833">
        <ele>1573</ele>
        <time>2019-08-21T14:11:27+02:00</time>
      </trkpt>
      <trkpt lat="45.8901" lon="6.38805">
        <ele>1573</ele>
        <time>2019-08-21T14:11:42+02:00</time>
      </trkpt>
      <trkpt lat="45.89023" lon="6.38806">
        <ele>1574</ele>
        <time>2019-08-21T14:12:40+02:00</time>
      </trkpt>
      <trkpt lat="45.89039" lon="6.3881">
        <ele>1572</ele>
        <time>2019-08-21T14:12:56+02:00</time>
      </trkpt>
      <trkpt lat="45.89059" lon="6.38811">
        <ele>1569</ele>
        <time>2019-08-21T14:13:14+02:00</time>
      </trkpt>
      <trkpt lat="45.89076" lon="6.38825">
        <ele>1565</ele>
        <time>2019-08-21T14:13:29+02:00</time>
      </trkpt>
      <trkpt lat="45.89089" lon="6.38843">
        <ele>1565</ele>
        <time>2019-08-21T14:13:48+02:00</time>
      </trkpt>
      <trkpt lat="45.89114" lon="6.38853">
        <ele>1562</ele>
        <time>2019-08-21T14:14:02+02:00</time>
      </trkpt>
      <trkpt lat="45.89124" lon="6.38866">
        <ele>1563</ele>
        <time>2019-08-21T14:14:47+02:00</time>
      </trkpt>
      <trkpt lat="45.8914" lon="6.38881">
        <ele>1563</ele>
        <time>2019-08-21T14:15:05+02:00</time>
      </trkpt>
      <trkpt lat="45.8916" lon="6.38881">
        <ele>1558</ele>
        <time>2019-08-21T14:15:26+02:00</time>
      </trkpt>
      <trkpt lat="45.89177" lon="6.38868">
        <ele>1553</ele>
        <time>2019-08-21T14:15:41+02:00</time>
      </trkpt>
      <trkpt lat="45.89196" lon="6.38867">
        <ele>1552</ele>
        <time>2019-08-21T14:15:56+02:00</time>
      </trkpt>
      <trkpt lat="45.89215" lon="6.38865">
        <ele>1549</ele>
        <time>2019-08-21T14:16:09+02:00</time>
      </trkpt>
      <trkpt lat="45.89234" lon="6.38863">
        <ele>1547</ele>
        <time>2019-08-21T14:16:22+02:00</time>
      </trkpt>
      <trkpt lat="45.89253" lon="6.38857">
        <ele>1545</ele>
        <time>2019-08-21T14:16:38+02:00</time>
      </trkpt>
      <trkpt lat="45.89271" lon="6.38847">
        <ele>1542</ele>
        <time>2019-08-21T14:16:53+02:00</time>
      </trkpt>
      <trkpt lat="45.89289" lon="6.38858">
        <ele>1543</ele>
        <time>2019-08-21T14:17:06+02:00</time>
      </trkpt>
      <trkpt lat="45.89308" lon="6.38863">
        <ele>1542</ele>
        <time>2019-08-21T14:17:25+02:00</time>
      </trkpt>
      <trkpt lat="45.89322" lon="6.38843">
        <ele>1540</ele>
        <time>2019-08-21T14:17:43+02:00</time>
      </trkpt>
      <trkpt lat="45.89328" lon="6.38815">
        <ele>1538</ele>
        <time>2019-08-21T14:17:58+02:00</time>
      </trkpt>
      <trkpt lat="45.89335" lon="6.38785">
        <ele>1536</ele>
        <time>2019-08-21T14:18:13+02:00</time>
      </trkpt>
      <trkpt lat="45.89351" lon="6.38772">
        <ele>1539</ele>
        <time>2019-08-21T14:18:51+02:00</time>
      </trkpt>
      <trkpt lat="45.89368" lon="6.3876">
        <ele>1542</ele>
        <time>2019-08-21T14:19:07+02:00</time>
      </trkpt>
      <trkpt lat="45.89386" lon="6.38748">
        <ele>1544</ele>
        <time>2019-08-21T14:19:22+02:00</time>
      </trkpt>
      <trkpt lat="45.89395" lon="6.38724">
        <ele>1543</ele>
        <time>2019-08-21T14:19:37+02:00</time>
      </trkpt>
      <trkpt lat="45.89408" lon="6.38707">
        <ele>1546</ele>
        <time>2019-08-21T14:19:52+02:00</time>
      </trkpt>
      <trkpt lat="45.89427" lon="6.38698">
        <ele>1549</ele>
        <time>2019-08-21T14:20:07+02:00</time>
      </trkpt>
      <trkpt lat="45.89444" lon="6.38686">
        <ele>1553</ele>
        <time>2019-08-21T14:20:23+02:00</time>
      </trkpt>
      <trkpt lat="45.89456" lon="6.38666">
        <ele>1556</ele>
        <time>2019-08-21T14:20:42+02:00</time>
      </trkpt>
      <trkpt lat="45.89467" lon="6.38642">
        <ele>1559</ele>
        <time>2019-08-21T14:20:57+02:00</time>
      </trkpt>
      <trkpt lat="45.89482" lon="6.38614">
        <ele>1562</ele>
        <time>2019-08-21T14:21:12+02:00</time>
      </trkpt>
      <trkpt lat="45.89496" lon="6.38614">
        <ele>1563</ele>
        <time>2019-08-21T14:21:29+02:00</time>
      </trkpt>
      <trkpt lat="45.89513" lon="6.38601">
        <ele>1562</ele>
        <time>2019-08-21T14:21:55+02:00</time>
      </trkpt>
      <trkpt lat="45.8953" lon="6.38611">
        <ele>1561</ele>
        <time>2019-08-21T14:22:11+02:00</time>
      </trkpt>
      <trkpt lat="45.89547" lon="6.38621">
        <ele>1559</ele>
        <time>2019-08-21T14:22:27+02:00</time>
      </trkpt>
      <trkpt lat="45.89566" lon="6.38618">
        <ele>1554</ele>
        <time>2019-08-21T14:22:46+02:00</time>
      </trkpt>
      <trkpt lat="45.89577" lon="6.3864">
        <ele>1555</ele>
        <time>2019-08-21T14:23:03+02:00</time>
      </trkpt>
      <trkpt lat="45.89593" lon="6.38655">
        <ele>1554</ele>
        <time>2019-08-21T14:23:24+02:00</time>
      </trkpt>
      <trkpt lat="45.89609" lon="6.3867">
        <ele>1554</ele>
        <time>2019-08-21T14:23:45+02:00</time>
      </trkpt>
      <trkpt lat="45.89626" lon="6.38684">
        <ele>1554</ele>
        <time>2019-08-21T14:24:04+02:00</time>
      </trkpt>
      <trkpt lat="45.8964" lon="6.38705">
        <ele>1553</ele>
        <time>2019-08-21T14:24:19+02:00</time>
      </trkpt>
      <trkpt lat="45.89653" lon="6.38725">
        <ele>1550</ele>
        <time>2019-08-21T14:24:39+02:00</time>
      </trkpt>
      <trkpt lat="45.89666" lon="6.38744">
        <ele>1546</ele>
        <time>2019-08-21T14:24:54+02:00</time>
      </trkpt>
      <trkpt lat="45.89676" lon="6.38768">
        <ele>1544</ele>
        <time>2019-08-21T14:25:14+02:00</time>
      </trkpt>
      <trkpt lat="45.89687" lon="6.38793">
        <ele>1542</ele>
        <time>2019-08-21T14:25:36+02:00</time>
      </trkpt>
      <trkpt lat="45.89688" lon="6.3882">
        <ele>1545</ele>
        <time>2019-08-21T14:25:51+02:00</time>
      </trkpt>
      <trkpt lat="45.89693" lon="6.38848">
        <ele>1544</ele>
        <time>2019-08-21T14:26:08+02:00</time>
      </trkpt>
      <trkpt lat="45.897" lon="6.38875">
        <ele>1542</ele>
        <time>2019-08-21T14:26:25+02:00</time>
      </trkpt>
      <trkpt lat="45.89702" lon="6.38902">
        <ele>1542</ele>
        <time>2019-08-21T14:28:13+02:00</time>
      </trkpt>
      <trkpt lat="45.89701" lon="6.38918">
        <ele>1543</ele>
        <time>2021-08-05T13:08:15+02:00</time>
      </trkpt>
      <trkpt lat="45.89709" lon="6.38926">
        <ele>1541</ele>
        <time>2019-08-21T14:29:15+02:00</time>
      </trkpt>
      <trkpt lat="45.89717" lon="6.3895">
        <ele>1539</ele>
        <time>2019-08-21T14:30:37+02:00</time>
      </trkpt>
      <trkpt lat="45.89726" lon="6.38972">
        <ele>1537</ele>
        <time>2019-08-21T14:31:33+02:00</time>
      </trkpt>
      <trkpt lat="45.8973" lon="6.38999">
        <ele>1536</ele>
        <time>2019-08-21T14:32:42+02:00</time>
      </trkpt>
      <trkpt lat="45.89742" lon="6.39019">
        <ele>1533</ele>
        <time>2019-08-21T14:35:05+02:00</time>
      </trkpt>
      <trkpt lat="45.89752" lon="6.39042">
        <ele>1532</ele>
        <time>2019-08-21T14:36:07+02:00</time>
      </trkpt>
      <trkpt lat="45.8976" lon="6.39066">
        <ele>1529</ele>
        <time>2019-08-21T14:37:23+02:00</time>
      </trkpt>
      <trkpt lat="45.89763" lon="6.39093">
        <ele>1527</ele>
        <time>2019-08-21T14:37:40+02:00</time>
      </trkpt>
      <trkpt lat="45.89766" lon="6.39121">
        <ele>1526</ele>
        <time>2019-08-21T14:38:02+02:00</time>
      </trkpt>
      <trkpt lat="45.89776" lon="6.39144">
        <ele>1524</ele>
        <time>2019-08-21T14:38:24+02:00</time>
      </trkpt>
      <trkpt lat="45.89789" lon="6.39165">
        <ele>1521</ele>
        <time>2019-08-21T14:38:41+02:00</time>
      </trkpt>
      <trkpt lat="45.89798" lon="6.39189">
        <ele>1520</ele>
        <time>2019-08-21T14:38:59+02:00</time>
      </trkpt>
      <trkpt lat="45.89807" lon="6.39212">
        <ele>1518</ele>
        <time>2019-08-21T14:39:18+02:00</time>
      </trkpt>
      <trkpt lat="45.89817" lon="6.39234">
        <ele>1516</ele>
        <time>2019-08-21T14:39:33+02:00</time>
      </trkpt>
      <trkpt lat="45.89825" lon="6.3926">
        <ele>1514</ele>
        <time>2019-08-21T14:39:49+02:00</time>
      </trkpt>
      <trkpt lat="45.89831" lon="6.39285">
        <ele>1511</ele>
        <time>2019-08-21T14:40:11+02:00</time>
      </trkpt>
      <trkpt lat="45.89848" lon="6.39299">
        <ele>1505</ele>
        <time>2019-08-21T14:42:42+02:00</time>
      </trkpt>
      <trkpt lat="45.89866" lon="6.39311">
        <ele>1502</ele>
        <time>2019-08-21T14:42:59+02:00</time>
      </trkpt>
      <trkpt lat="45.89883" lon="6.39323">
        <ele>1502</ele>
        <time>2019-08-21T14:43:14+02:00</time>
      </trkpt>
      <trkpt lat="45.89901" lon="6.39332">
        <ele>1504</ele>
        <time>2019-08-21T14:43:29+02:00</time>
      </trkpt>
      <trkpt lat="45.89918" lon="6.3934">
        <ele>1507</ele>
        <time>2019-08-21T14:43:44+02:00</time>
      </trkpt>
      <trkpt lat="45.89937" lon="6.39348">
        <ele>1511</ele>
        <time>2019-08-21T14:44:06+02:00</time>
      </trkpt>
      <trkpt lat="45.89955" lon="6.39354">
        <ele>1515</ele>
        <time>2019-08-21T14:44:27+02:00</time>
      </trkpt>
      <trkpt lat="45.89973" lon="6.39362">
        <ele>1519</ele>
        <time>2019-08-21T14:45:01+02:00</time>
      </trkpt>
      <trkpt lat="45.89989" lon="6.39374">
        <ele>1520</ele>
        <time>2019-08-21T14:45:21+02:00</time>
      </trkpt>
      <trkpt lat="45.90006" lon="6.39387">
        <ele>1523</ele>
        <time>2019-08-21T14:45:53+02:00</time>
      </trkpt>
      <trkpt lat="45.90021" lon="6.39402">
        <ele>1524</ele>
        <time>2019-08-21T14:46:40+02:00</time>
      </trkpt>
      <trkpt lat="45.90036" lon="6.39419">
        <ele>1526</ele>
        <time>2019-08-21T14:47:01+02:00</time>
      </trkpt>
      <trkpt lat="45.9005" lon="6.39437">
        <ele>1526</ele>
        <time>2019-08-21T14:47:21+02:00</time>
      </trkpt>
      <trkpt lat="45.90065" lon="6.39455">
        <ele>1525</ele>
        <time>2019-08-21T14:47:43+02:00</time>
      </trkpt>
      <trkpt lat="45.9008" lon="6.39468">
        <ele>1525</ele>
        <time>2019-08-21T14:48:11+02:00</time>
      </trkpt>
      <trkpt lat="45.90089" lon="6.39493">
        <ele>1525</ele>
        <time>2019-08-21T14:48:28+02:00</time>
      </trkpt>
      <trkpt lat="45.90096" lon="6.39517">
        <ele>1523</ele>
        <time>2019-08-21T14:48:51+02:00</time>
      </trkpt>
      <trkpt lat="45.90104" lon="6.39542">
        <ele>1519</ele>
        <time>2019-08-21T14:49:09+02:00</time>
      </trkpt>
      <trkpt lat="45.9011" lon="6.39568">
        <ele>1521</ele>
        <time>2019-08-21T14:49:28+02:00</time>
      </trkpt>
      <trkpt lat="45.90117" lon="6.39593">
        <ele>1524</ele>
        <time>2019-08-21T14:49:46+02:00</time>
      </trkpt>
      <trkpt lat="45.90127" lon="6.39617">
        <ele>1525</ele>
        <time>2019-08-21T14:52:31+02:00</time>
      </trkpt>
      <trkpt lat="45.90138" lon="6.39639">
        <ele>1529</ele>
        <time>2019-08-21T14:52:45+02:00</time>
      </trkpt>
      <trkpt lat="45.90148" lon="6.39663">
        <ele>1530</ele>
        <time>2019-08-21T14:53:01+02:00</time>
      </trkpt>
      <trkpt lat="45.90157" lon="6.39688">
        <ele>1528</ele>
        <time>2019-08-21T14:53:16+02:00</time>
      </trkpt>
      <trkpt lat="45.90168" lon="6.39711">
        <ele>1529</ele>
        <time>2019-08-21T14:53:31+02:00</time>
      </trkpt>
      <trkpt lat="45.90171" lon="6.39738">
        <ele>1530</ele>
        <time>2019-08-21T14:53:47+02:00</time>
      </trkpt>
      <trkpt lat="45.90176" lon="6.39764">
        <ele>1528</ele>
        <time>2019-08-21T14:54:02+02:00</time>
      </trkpt>
      <trkpt lat="45.90185" lon="6.39787">
        <ele>1525</ele>
        <time>2019-08-21T14:54:18+02:00</time>
      </trkpt>
      <trkpt lat="45.9018" lon="6.39814">
        <ele>1524</ele>
        <time>2019-08-21T14:54:36+02:00</time>
      </trkpt>
      <trkpt lat="45.90182" lon="6.39838">
        <ele>1519</ele>
        <time>2019-08-21T14:54:53+02:00</time>
      </trkpt>
      <trkpt lat="45.90189" lon="6.39862">
        <ele>1513</ele>
        <time>2019-08-21T14:55:15+02:00</time>
      </trkpt>
      <trkpt lat="45.90195" lon="6.39889">
        <ele>1507</ele>
        <time>2019-08-21T14:55:34+02:00</time>
      </trkpt>
      <trkpt lat="45.90207" lon="6.39909">
        <ele>1502</ele>
        <time>2019-08-21T14:55:51+02:00</time>
      </trkpt>
      <trkpt lat="45.90202" lon="6.39932">
        <ele>1500</ele>
        <time>2019-08-21T14:56:10+02:00</time>
      </trkpt>
      <trkpt lat="45.90194" lon="6.39957">
        <ele>1497</ele>
        <time>2019-08-21T14:56:25+02:00</time>
      </trkpt>
      <trkpt lat="45.90207" lon="6.39974">
        <ele>1496</ele>
        <time>2019-08-21T14:57:15+02:00</time>
      </trkpt>
      <trkpt lat="45.90221" lon="6.3999">
        <ele>1494</ele>
        <time>2019-08-21T14:57:41+02:00</time>
      </trkpt>
      <trkpt lat="45.90239" lon="6.4">
        <ele>1492</ele>
        <time>2019-08-21T14:57:57+02:00</time>
      </trkpt>
      <trkpt lat="45.90257" lon="6.40004">
        <ele>1487</ele>
        <time>2019-08-21T14:58:42+02:00</time>
      </trkpt>
      <trkpt lat="45.90271" lon="6.40001">
        <ele>1483</ele>
        <time>2019-08-21T15:00:13+02:00</time>
      </trkpt>
      <trkpt lat="45.90292" lon="6.4">
        <ele>1469</ele>
        <time>2019-08-21T15:01:12+02:00</time>
      </trkpt>
      <trkpt lat="45.90299" lon="6.40025">
        <ele>1464</ele>
        <time>2019-08-21T15:02:00+02:00</time>
      </trkpt>
      <trkpt lat="45.90305" lon="6.40051">
        <ele>1459</ele>
        <time>2019-08-21T15:02:27+02:00</time>
      </trkpt>
      <trkpt lat="45.90314" lon="6.40078">
        <ele>1449</ele>
        <time>2019-08-21T15:04:17+02:00</time>
      </trkpt>
      <trkpt lat="45.90332" lon="6.40088">
        <ele>1441</ele>
        <time>2019-08-21T15:04:52+02:00</time>
      </trkpt>
      <trkpt lat="45.90346" lon="6.40106">
        <ele>1433</ele>
        <time>2019-08-21T15:05:12+02:00</time>
      </trkpt>
      <trkpt lat="45.90361" lon="6.40123">
        <ele>1430</ele>
        <time>2019-08-21T15:05:31+02:00</time>
      </trkpt>
      <trkpt lat="45.90375" lon="6.40142">
        <ele>1430</ele>
        <time>2019-08-21T15:05:58+02:00</time>
      </trkpt>
      <trkpt lat="45.90388" lon="6.40161">
        <ele>1430</ele>
        <time>2019-08-21T15:06:16+02:00</time>
      </trkpt>
      <trkpt lat="45.90401" lon="6.40182">
        <ele>1432</ele>
        <time>2019-08-21T15:06:32+02:00</time>
      </trkpt>
      <trkpt lat="45.90418" lon="6.40216">
        <ele>1434</ele>
        <time>2019-08-21T15:07:25+02:00</time>
      </trkpt>
      <trkpt lat="45.90424" lon="6.40178">
        <ele>1432</ele>
        <time>2019-08-21T15:07:48+02:00</time>
      </trkpt>
      <trkpt lat="45.90449" lon="6.40162">
        <ele>1427</ele>
        <time>2019-08-21T15:08:11+02:00</time>
      </trkpt>
      <trkpt lat="45.90465" lon="6.40172">
        <ele>1425</ele>
        <time>2019-08-21T15:09:27+02:00</time>
      </trkpt>
      <trkpt lat="45.90472" lon="6.40197">
        <ele>1424</ele>
        <time>2019-08-21T15:09:41+02:00</time>
      </trkpt>
      <trkpt lat="45.9048" lon="6.40222">
        <ele>1425</ele>
        <time>2019-08-21T15:09:57+02:00</time>
      </trkpt>
      <trkpt lat="45.90482" lon="6.40249">
        <ele>1426</ele>
        <time>2019-08-21T15:10:12+02:00</time>
      </trkpt>
      <trkpt lat="45.90489" lon="6.40276">
        <ele>1425</ele>
        <time>2019-08-21T15:10:29+02:00</time>
      </trkpt>
      <trkpt lat="45.90492" lon="6.40303">
        <ele>1425</ele>
        <time>2019-08-21T15:10:43+02:00</time>
      </trkpt>
      <trkpt lat="45.90501" lon="6.40326">
        <ele>1424</ele>
        <time>2019-08-21T15:10:59+02:00</time>
      </trkpt>
      <trkpt lat="45.90496" lon="6.40355">
        <ele>1423</ele>
        <time>2019-08-21T15:11:20+02:00</time>
      </trkpt>
      <trkpt lat="45.90515" lon="6.40355">
        <ele>1422</ele>
        <time>2019-08-21T15:11:47+02:00</time>
      </trkpt>
      <trkpt lat="45.90534" lon="6.40352">
        <ele>1420</ele>
        <time>2019-08-21T15:12:04+02:00</time>
      </trkpt>
      <trkpt lat="45.90554" lon="6.40359">
        <ele>1415</ele>
        <time>2019-08-21T15:12:42+02:00</time>
      </trkpt>
      <trkpt lat="45.9056" lon="6.40384">
        <ele>1413</ele>
        <time>2019-08-21T15:13:00+02:00</time>
      </trkpt>
      <trkpt lat="45.9056" lon="6.40411">
        <ele>1413</ele>
        <time>2019-08-21T15:13:19+02:00</time>
      </trkpt>
      <trkpt lat="45.90556" lon="6.40437">
        <ele>1416</ele>
        <time>2019-08-21T15:13:40+02:00</time>
      </trkpt>
      <trkpt lat="45.90553" lon="6.40465">
        <ele>1418</ele>
        <time>2019-08-21T15:13:55+02:00</time>
      </trkpt>
      <trkpt lat="45.90549" lon="6.4049">
        <ele>1419</ele>
        <time>2019-08-21T15:14:56+02:00</time>
      </trkpt>
      <trkpt lat="45.90539" lon="6.40513">
        <ele>1418</ele>
        <time>2019-08-21T15:15:17+02:00</time>
      </trkpt>
      <trkpt lat="45.90527" lon="6.40537">
        <ele>1416</ele>
        <time>2019-08-21T15:15:35+02:00</time>
      </trkpt>
      <trkpt lat="45.90522" lon="6.40565">
        <ele>1411</ele>
        <time>2019-08-21T15:15:55+02:00</time>
      </trkpt>
      <trkpt lat="45.9053" lon="6.4059">
        <ele>1408</ele>
        <time>2019-08-21T15:16:17+02:00</time>
      </trkpt>
      <trkpt lat="45.90531" lon="6.40617">
        <ele>1404</ele>
        <time>2019-08-21T15:16:38+02:00</time>
      </trkpt>
      <trkpt lat="45.90519" lon="6.40632">
        <ele>1399</ele>
        <time>2019-08-21T15:18:16+02:00</time>
      </trkpt>
      <trkpt lat="45.905" lon="6.40638">
        <ele>1393</ele>
        <time>2019-08-21T15:18:36+02:00</time>
      </trkpt>
      <trkpt lat="45.90485" lon="6.40652">
        <ele>1384</ele>
        <time>2019-08-21T15:19:04+02:00</time>
      </trkpt>
      <trkpt lat="45.90466" lon="6.40658">
        <ele>1376</ele>
        <time>2019-08-21T15:19:55+02:00</time>
      </trkpt>
      <trkpt lat="45.90448" lon="6.40656">
        <ele>1369</ele>
        <time>2019-08-21T15:21:20+02:00</time>
      </trkpt>
      <trkpt lat="45.90429" lon="6.40649">
        <ele>1366</ele>
        <time>2019-08-21T15:22:07+02:00</time>
      </trkpt>
      <trkpt lat="45.9041" lon="6.40654">
        <ele>1357</ele>
        <time>2019-08-21T15:23:03+02:00</time>
      </trkpt>
      <trkpt lat="45.90391" lon="6.40653">
        <ele>1351</ele>
        <time>2019-08-21T15:24:20+02:00</time>
      </trkpt>
      <trkpt lat="45.90373" lon="6.4065">
        <ele>1344</ele>
        <time>2019-08-21T15:24:59+02:00</time>
      </trkpt>
      <trkpt lat="45.90356" lon="6.40653">
        <ele>1338</ele>
        <time>2021-08-05T13:16:35+02:00</time>
      </trkpt>
      <trkpt lat="45.90373" lon="6.40675">
        <ele>1336</ele>
        <time>2019-08-21T15:26:03+02:00</time>
      </trkpt>
      <trkpt lat="45.90388" lon="6.40693">
        <ele>1334</ele>
        <time>2019-08-21T15:26:18+02:00</time>
      </trkpt>
      <trkpt lat="45.90402" lon="6.4071">
        <ele>1335</ele>
        <time>2019-08-21T15:26:33+02:00</time>
      </trkpt>
      <trkpt lat="45.90414" lon="6.4073">
        <ele>1334</ele>
        <time>2019-08-21T15:27:02+02:00</time>
      </trkpt>
      <trkpt lat="45.90427" lon="6.40751">
        <ele>1332</ele>
        <time>2019-08-21T15:27:18+02:00</time>
      </trkpt>
      <trkpt lat="45.90439" lon="6.40773">
        <ele>1331</ele>
        <time>2019-08-21T15:27:34+02:00</time>
      </trkpt>
      <trkpt lat="45.90447" lon="6.40809">
        <ele>1327</ele>
        <time>2019-08-21T15:28:08+02:00</time>
      </trkpt>
      <trkpt lat="45.90451" lon="6.40834">
        <ele>1323</ele>
        <time>2019-08-21T15:29:21+02:00</time>
      </trkpt>
      <trkpt lat="45.90474" lon="6.409">
        <ele>1319</ele>
        <time>2019-08-21T15:30:10+02:00</time>
      </trkpt>
      <trkpt lat="45.90475" lon="6.40938">
        <ele>1312</ele>
        <time>2019-08-21T15:30:23+02:00</time>
      </trkpt>
      <trkpt lat="45.90477" lon="6.40981">
        <ele>1307</ele>
        <time>2019-08-21T15:30:58+02:00</time>
      </trkpt>
      <trkpt lat="45.90488" lon="6.41033">
        <ele>1305</ele>
        <time>2019-08-21T15:31:34+02:00</time>
      </trkpt>
      <trkpt lat="45.90514" lon="6.41164">
        <ele>1285</ele>
        <time>2019-08-21T15:33:24+02:00</time>
      </trkpt>
      <trkpt lat="45.90587" lon="6.41282">
        <ele>1278</ele>
        <time>2019-08-21T15:36:45+02:00</time>
      </trkpt>
      <trkpt lat="45.90604" lon="6.41327">
        <ele>1266</ele>
        <time>2019-08-21T15:38:05+02:00</time>
      </trkpt>
      <trkpt lat="45.90619" lon="6.41387">
        <ele>1246</ele>
        <time>2019-08-21T15:38:54+02:00</time>
      </trkpt>
      <trkpt lat="45.9063" lon="6.41438">
        <ele>1232</ele>
        <time>2019-08-21T15:39:51+02:00</time>
      </trkpt>
      <trkpt lat="45.90601" lon="6.41434">
        <ele>1220</ele>
        <time>2019-08-21T15:40:50+02:00</time>
      </trkpt>
      <trkpt lat="45.90624" lon="6.4148">
        <ele>1214</ele>
        <time>2019-08-21T15:42:03+02:00</time>
      </trkpt>
      <trkpt lat="45.90634" lon="6.41503">
        <ele>1211</ele>
        <time>2019-08-21T15:42:42+02:00</time>
      </trkpt>
      <trkpt lat="45.90643" lon="6.41525">
        <ele>1206</ele>
        <time>2019-08-21T15:43:05+02:00</time>
      </trkpt>
      <trkpt lat="45.90648" lon="6.41551">
        <ele>1201</ele>
        <time>2019-08-21T15:43:33+02:00</time>
      </trkpt>
      <trkpt lat="45.90659" lon="6.41597">
        <ele>1193</ele>
        <time>2019-08-21T15:45:20+02:00</time>
      </trkpt>
      <trkpt lat="45.90629" lon="6.41583">
        <ele>1182</ele>
        <time>2021-08-05T13:18:35+02:00</time>
      </trkpt>
      <trkpt lat="45.9063" lon="6.41625">
        <ele>1170</ele>
        <time>2019-08-21T15:48:34+02:00</time>
      </trkpt>
      <trkpt lat="45.90621" lon="6.41624">
        <ele>1165</ele>
        <time>2021-08-05T13:18:45+02:00</time>
      </trkpt>
      <trkpt lat="45.90623" lon="6.4167">
        <ele>1153</ele>
        <time>2019-08-21T15:49:44+02:00</time>
      </trkpt>
      <trkpt lat="45.90604" lon="6.41667">
        <ele>1145</ele>
        <time>2019-08-21T15:50:26+02:00</time>
      </trkpt>
      <trkpt lat="45.90606" lon="6.41696">
        <ele>1139</ele>
        <time>2019-08-21T15:51:24+02:00</time>
      </trkpt>
      <trkpt lat="45.90588" lon="6.41688">
        <ele>1133</ele>
        <time>2021-08-05T13:19:05+02:00</time>
      </trkpt>
      <trkpt lat="45.90587" lon="6.41706">
        <ele>1129</ele>
        <time>2019-08-21T15:51:56+02:00</time>
      </trkpt>
      <trkpt lat="45.90589" lon="6.41734">
        <ele>1123</ele>
        <time>2019-08-21T15:52:21+02:00</time>
      </trkpt>
      <trkpt lat="45.90591" lon="6.41755">
        <ele>1118</ele>
        <time>2019-08-21T15:53:01+02:00</time>
      </trkpt>
      <trkpt lat="45.90599" lon="6.41776">
        <ele>1111</ele>
        <time>2019-08-21T15:53:23+02:00</time>
      </trkpt>
      <trkpt lat="45.90586" lon="6.41792">
        <ele>1104</ele>
        <time>2019-08-21T15:54:22+02:00</time>
      </trkpt>
      <trkpt lat="45.90579" lon="6.41816">
        <ele>1095</ele>
        <time>2019-08-21T15:55:22+02:00</time>
      </trkpt>
      <trkpt lat="45.90579" lon="6.41839">
        <ele>1084</ele>
        <time>2019-08-21T15:56:23+02:00</time>
      </trkpt>
      <trkpt lat="45.90576" lon="6.41862">
        <ele>1073</ele>
        <time>2019-08-21T15:58:48+02:00</time>
      </trkpt>
      <trkpt lat="45.90572" lon="6.41888">
        <ele>1066</ele>
        <time>2019-08-21T15:59:10+02:00</time>
      </trkpt>
      <trkpt lat="45.90566" lon="6.41914">
        <ele>1065</ele>
        <time>2019-08-21T15:59:30+02:00</time>
      </trkpt>
      <trkpt lat="45.90571" lon="6.41939">
        <ele>1062</ele>
        <time>2019-08-21T15:59:43+02:00</time>
      </trkpt>
      <trkpt lat="45.90581" lon="6.41961">
        <ele>1058</ele>
        <time>2019-08-21T15:59:59+02:00</time>
      </trkpt>
      <trkpt lat="45.90581" lon="6.41992">
        <ele>1055</ele>
        <time>2019-08-21T16:00:16+02:00</time>
      </trkpt>
      <trkpt lat="45.90581" lon="6.42025">
        <ele>1052</ele>
        <time>2021-08-05T13:20:15+02:00</time>
      </trkpt>
      <trkpt lat="45.90574" lon="6.42056">
        <ele>1047</ele>
        <time>2021-08-05T13:20:20+02:00</time>
      </trkpt>
      <trkpt lat="45.90548" lon="6.42076">
        <ele>1045</ele>
        <time>2021-08-05T13:20:25+02:00</time>
      </trkpt>
      <trkpt lat="45.90493" lon="6.42043">
        <ele>1043</ele>
        <time>2021-08-05T13:20:30+02:00</time>
      </trkpt>
      <trkpt lat="45.90468" lon="6.42042">
        <ele>1042</ele>
        <time>2021-08-05T13:20:35+02:00</time>
      </trkpt>
      <trkpt lat="45.90442" lon="6.42073">
        <ele>1038</ele>
        <time>2019-08-21T16:00:33+02:00</time>
      </trkpt>
      <trkpt lat="45.90528" lon="6.42147">
        <ele>1034</ele>
        <time>2021-08-05T13:20:45+02:00</time>
      </trkpt>
      <trkpt lat="45.90572" lon="6.42161">
        <ele>1028</ele>
        <time>2021-08-05T13:20:50+02:00</time>
      </trkpt>
      <trkpt lat="45.90618" lon="6.42013">
        <ele>1037</ele>
        <time>2019-08-21T16:00:40+02:00</time>
      </trkpt>
    </trkseg>
  </trk>
</gpx>